<?xml version="1.0" encoding="UTF-8" standalone="no" ?>
<gpx xmlns="http://www.topografix.com/GPX/1/1" xmlns:xsi="http://www.w3.org/2001/XMLSchema-instance" xsi:schemaLocation="http://www.topografix.com/GPX/1/1 http://www.topografix.com/GPX/1/1/gpx.xsd" version="1.1" creator="VisuGPX - https://www.visugpx.com">
  <metadata>
    <name>Le bac à Loctudy - 929 - UtagawaVTT.com</name>
  </metadata>
  <trk>
    <name><![CDATA[Le bac à Loctudy - 929 - UtagawaVTT.com]]></name>
    <extensions>
      <line xmlns="http://www.topografix.com/GPX/gpx_style/0/2">
        <color>0000FF</color>
        <width>4</width>
      </line>
    </extensions>
    <trkseg>
      <trkpt lat="47.90308" lon="-4.28488">
        <ele>71</ele>
        <time>2023-11-25T17:34:25.402Z</time>
      </trkpt>
      <trkpt lat="47.90308" lon="-4.28488">
        <ele>71</ele>
        <time>2023-11-25T17:34:17.620Z</time>
      </trkpt>
      <trkpt lat="47.90295" lon="-4.28477">
        <ele>71</ele>
        <time>2023-11-25T17:34:09.838Z</time>
      </trkpt>
      <trkpt lat="47.90282" lon="-4.2851">
        <ele>71</ele>
        <time>2023-11-25T17:34:02.059Z</time>
      </trkpt>
      <trkpt lat="47.90268" lon="-4.28545">
        <ele>71</ele>
        <time>2023-11-25T17:33:54.285Z</time>
      </trkpt>
      <trkpt lat="47.90258" lon="-4.28579">
        <ele>71</ele>
        <time>2023-11-25T17:33:46.517Z</time>
      </trkpt>
      <trkpt lat="47.90257" lon="-4.2861">
        <ele>71</ele>
        <time>2023-11-25T17:33:38.754Z</time>
      </trkpt>
      <trkpt lat="47.90361" lon="-4.28711">
        <ele>72</ele>
        <time>2023-11-25T17:33:30.995Z</time>
      </trkpt>
      <trkpt lat="47.90409" lon="-4.28823">
        <ele>68</ele>
        <time>2023-11-25T17:33:23.261Z</time>
      </trkpt>
      <trkpt lat="47.90471" lon="-4.28972">
        <ele>56</ele>
        <time>2023-11-25T17:33:15.544Z</time>
      </trkpt>
      <trkpt lat="47.90518" lon="-4.29038">
        <ele>54</ele>
        <time>2023-11-25T17:33:07.851Z</time>
      </trkpt>
      <trkpt lat="47.90591" lon="-4.2913">
        <ele>56</ele>
        <time>2023-11-25T17:33:00.171Z</time>
      </trkpt>
      <trkpt lat="47.907" lon="-4.29202">
        <ele>52</ele>
        <time>2023-11-25T17:32:52.510Z</time>
      </trkpt>
      <trkpt lat="47.90803" lon="-4.28948">
        <ele>46</ele>
        <time>2023-11-25T17:32:44.873Z</time>
      </trkpt>
      <trkpt lat="47.90812" lon="-4.28907">
        <ele>44</ele>
        <time>2023-11-25T17:32:37.276Z</time>
      </trkpt>
      <trkpt lat="47.90767" lon="-4.28885">
        <ele>44</ele>
        <time>2023-11-25T17:32:29.685Z</time>
      </trkpt>
      <trkpt lat="47.90706" lon="-4.28852">
        <ele>47</ele>
        <time>2023-11-25T17:32:22.103Z</time>
      </trkpt>
      <trkpt lat="47.9067" lon="-4.28811">
        <ele>50</ele>
        <time>2023-11-25T17:32:14.534Z</time>
      </trkpt>
      <trkpt lat="47.90644" lon="-4.28754">
        <ele>52</ele>
        <time>2023-11-25T17:32:06.974Z</time>
      </trkpt>
      <trkpt lat="47.90628" lon="-4.2869">
        <ele>54</ele>
        <time>2023-11-25T17:31:59.423Z</time>
      </trkpt>
      <trkpt lat="47.90633" lon="-4.28588">
        <ele>55</ele>
        <time>2023-11-25T17:31:51.882Z</time>
      </trkpt>
      <trkpt lat="47.90704" lon="-4.28375">
        <ele>59</ele>
        <time>2023-11-25T17:31:44.354Z</time>
      </trkpt>
      <trkpt lat="47.90759" lon="-4.28218">
        <ele>64</ele>
        <time>2023-11-25T17:31:36.858Z</time>
      </trkpt>
      <trkpt lat="47.908" lon="-4.28087">
        <ele>68</ele>
        <time>2023-11-25T17:31:29.386Z</time>
      </trkpt>
      <trkpt lat="47.90803" lon="-4.28045">
        <ele>70</ele>
        <time>2023-11-25T17:31:21.934Z</time>
      </trkpt>
      <trkpt lat="47.90872" lon="-4.28056">
        <ele>65</ele>
        <time>2023-11-25T17:31:14.487Z</time>
      </trkpt>
      <trkpt lat="47.90969" lon="-4.28107">
        <ele>61</ele>
        <time>2023-11-25T17:31:07.054Z</time>
      </trkpt>
      <trkpt lat="47.91015" lon="-4.28176">
        <ele>58</ele>
        <time>2023-11-25T17:30:59.642Z</time>
      </trkpt>
      <trkpt lat="47.91004" lon="-4.28245">
        <ele>54</ele>
        <time>2023-11-25T17:30:52.243Z</time>
      </trkpt>
      <trkpt lat="47.90999" lon="-4.2832">
        <ele>51</ele>
        <time>2023-11-25T17:30:44.853Z</time>
      </trkpt>
      <trkpt lat="47.91014" lon="-4.28376">
        <ele>49</ele>
        <time>2023-11-25T17:30:37.474Z</time>
      </trkpt>
      <trkpt lat="47.91007" lon="-4.28477">
        <ele>46</ele>
        <time>2023-11-25T17:30:30.103Z</time>
      </trkpt>
      <trkpt lat="47.9099" lon="-4.28542">
        <ele>44</ele>
        <time>2023-11-25T17:30:22.745Z</time>
      </trkpt>
      <trkpt lat="47.9094" lon="-4.28598">
        <ele>42</ele>
        <time>2023-11-25T17:30:15.397Z</time>
      </trkpt>
      <trkpt lat="47.90942" lon="-4.28628">
        <ele>40</ele>
        <time>2023-11-25T17:30:08.061Z</time>
      </trkpt>
      <trkpt lat="47.90954" lon="-4.2866">
        <ele>39</ele>
        <time>2023-11-25T17:30:00.729Z</time>
      </trkpt>
      <trkpt lat="47.91001" lon="-4.28705">
        <ele>41</ele>
        <time>2023-11-25T17:29:53.402Z</time>
      </trkpt>
      <trkpt lat="47.91068" lon="-4.28742">
        <ele>46</ele>
        <time>2023-11-25T17:29:46.086Z</time>
      </trkpt>
      <trkpt lat="47.91157" lon="-4.28758">
        <ele>50</ele>
        <time>2023-11-25T17:29:38.785Z</time>
      </trkpt>
      <trkpt lat="47.91231" lon="-4.28769">
        <ele>52</ele>
        <time>2023-11-25T17:29:31.502Z</time>
      </trkpt>
      <trkpt lat="47.91265" lon="-4.28753">
        <ele>53</ele>
        <time>2023-11-25T17:29:24.233Z</time>
      </trkpt>
      <trkpt lat="47.91294" lon="-4.28728">
        <ele>54</ele>
        <time>2023-11-25T17:29:16.972Z</time>
      </trkpt>
      <trkpt lat="47.91312" lon="-4.28735">
        <ele>54</ele>
        <time>2023-11-25T17:29:09.717Z</time>
      </trkpt>
      <trkpt lat="47.91461" lon="-4.28736">
        <ele>55</ele>
        <time>2023-11-25T17:29:02.466Z</time>
      </trkpt>
      <trkpt lat="47.91473" lon="-4.28591">
        <ele>56</ele>
        <time>2023-11-25T17:28:55.245Z</time>
      </trkpt>
      <trkpt lat="47.91492" lon="-4.28478">
        <ele>56</ele>
        <time>2023-11-25T17:28:48.043Z</time>
      </trkpt>
      <trkpt lat="47.91509" lon="-4.28384">
        <ele>55</ele>
        <time>2023-11-25T17:28:40.857Z</time>
      </trkpt>
      <trkpt lat="47.91547" lon="-4.2822">
        <ele>57</ele>
        <time>2023-11-25T17:28:33.684Z</time>
      </trkpt>
      <trkpt lat="47.91594" lon="-4.2811">
        <ele>57</ele>
        <time>2023-11-25T17:28:26.535Z</time>
      </trkpt>
      <trkpt lat="47.9163" lon="-4.28018">
        <ele>57</ele>
        <time>2023-11-25T17:28:19.403Z</time>
      </trkpt>
      <trkpt lat="47.91641" lon="-4.27933">
        <ele>58</ele>
        <time>2023-11-25T17:28:12.285Z</time>
      </trkpt>
      <trkpt lat="47.9167" lon="-4.27881">
        <ele>57</ele>
        <time>2023-11-25T17:28:05.179Z</time>
      </trkpt>
      <trkpt lat="47.91708" lon="-4.2783">
        <ele>57</ele>
        <time>2023-11-25T17:27:58.082Z</time>
      </trkpt>
      <trkpt lat="47.9173" lon="-4.27739">
        <ele>58</ele>
        <time>2023-11-25T17:27:50.995Z</time>
      </trkpt>
      <trkpt lat="47.91753" lon="-4.27671">
        <ele>58</ele>
        <time>2023-11-25T17:27:43.921Z</time>
      </trkpt>
      <trkpt lat="47.91784" lon="-4.2765">
        <ele>57</ele>
        <time>2023-11-25T17:27:36.858Z</time>
      </trkpt>
      <trkpt lat="47.91844" lon="-4.27644">
        <ele>56</ele>
        <time>2023-11-25T17:27:29.801Z</time>
      </trkpt>
      <trkpt lat="47.91872" lon="-4.27611">
        <ele>55</ele>
        <time>2023-11-25T17:27:22.756Z</time>
      </trkpt>
      <trkpt lat="47.919" lon="-4.27465">
        <ele>53</ele>
        <time>2023-11-25T17:27:15.719Z</time>
      </trkpt>
      <trkpt lat="47.91932" lon="-4.27348">
        <ele>50</ele>
        <time>2023-11-25T17:27:08.702Z</time>
      </trkpt>
      <trkpt lat="47.9195" lon="-4.27213">
        <ele>52</ele>
        <time>2023-11-25T17:27:01.702Z</time>
      </trkpt>
      <trkpt lat="47.91965" lon="-4.27114">
        <ele>53</ele>
        <time>2023-11-25T17:26:54.720Z</time>
      </trkpt>
      <trkpt lat="47.92" lon="-4.26987">
        <ele>52</ele>
        <time>2023-11-25T17:26:47.752Z</time>
      </trkpt>
      <trkpt lat="47.92028" lon="-4.26863">
        <ele>51</ele>
        <time>2023-11-25T17:26:40.802Z</time>
      </trkpt>
      <trkpt lat="47.92035" lon="-4.26707">
        <ele>47</ele>
        <time>2023-11-25T17:26:33.870Z</time>
      </trkpt>
      <trkpt lat="47.92021" lon="-4.26611">
        <ele>46</ele>
        <time>2023-11-25T17:26:26.959Z</time>
      </trkpt>
      <trkpt lat="47.92015" lon="-4.26535">
        <ele>43</ele>
        <time>2023-11-25T17:26:20.061Z</time>
      </trkpt>
      <trkpt lat="47.92015" lon="-4.26484">
        <ele>41</ele>
        <time>2023-11-25T17:26:13.174Z</time>
      </trkpt>
      <trkpt lat="47.92027" lon="-4.2643">
        <ele>40</ele>
        <time>2023-11-25T17:26:06.294Z</time>
      </trkpt>
      <trkpt lat="47.92043" lon="-4.26367">
        <ele>39</ele>
        <time>2023-11-25T17:25:59.421Z</time>
      </trkpt>
      <trkpt lat="47.92062" lon="-4.26317">
        <ele>38</ele>
        <time>2023-11-25T17:25:52.557Z</time>
      </trkpt>
      <trkpt lat="47.92057" lon="-4.26273">
        <ele>37</ele>
        <time>2023-11-25T17:25:45.701Z</time>
      </trkpt>
      <trkpt lat="47.92027" lon="-4.26229">
        <ele>36</ele>
        <time>2023-11-25T17:25:38.851Z</time>
      </trkpt>
      <trkpt lat="47.91972" lon="-4.262">
        <ele>33</ele>
        <time>2023-11-25T17:25:32.010Z</time>
      </trkpt>
      <trkpt lat="47.91959" lon="-4.26165">
        <ele>34</ele>
        <time>2023-11-25T17:25:25.180Z</time>
      </trkpt>
      <trkpt lat="47.9196" lon="-4.26118">
        <ele>33</ele>
        <time>2023-11-25T17:25:18.356Z</time>
      </trkpt>
      <trkpt lat="47.91947" lon="-4.26078">
        <ele>33</ele>
        <time>2023-11-25T17:25:11.538Z</time>
      </trkpt>
      <trkpt lat="47.91925" lon="-4.2603">
        <ele>33</ele>
        <time>2023-11-25T17:25:04.726Z</time>
      </trkpt>
      <trkpt lat="47.91914" lon="-4.26008">
        <ele>34</ele>
        <time>2023-11-25T17:24:57.922Z</time>
      </trkpt>
      <trkpt lat="47.91913" lon="-4.25983">
        <ele>34</ele>
        <time>2023-11-25T17:24:51.121Z</time>
      </trkpt>
      <trkpt lat="47.91914" lon="-4.25946">
        <ele>34</ele>
        <time>2023-11-25T17:24:44.324Z</time>
      </trkpt>
      <trkpt lat="47.91922" lon="-4.25889">
        <ele>34</ele>
        <time>2023-11-25T17:24:37.532Z</time>
      </trkpt>
      <trkpt lat="47.91931" lon="-4.25821">
        <ele>33</ele>
        <time>2023-11-25T17:24:30.748Z</time>
      </trkpt>
      <trkpt lat="47.91934" lon="-4.25781">
        <ele>33</ele>
        <time>2023-11-25T17:24:23.973Z</time>
      </trkpt>
      <trkpt lat="47.91928" lon="-4.2572">
        <ele>32</ele>
        <time>2023-11-25T17:24:17.203Z</time>
      </trkpt>
      <trkpt lat="47.91921" lon="-4.25659">
        <ele>31</ele>
        <time>2023-11-25T17:24:10.442Z</time>
      </trkpt>
      <trkpt lat="47.91921" lon="-4.256">
        <ele>30</ele>
        <time>2023-11-25T17:24:03.689Z</time>
      </trkpt>
      <trkpt lat="47.91903" lon="-4.25571">
        <ele>29</ele>
        <time>2023-11-25T17:23:56.944Z</time>
      </trkpt>
      <trkpt lat="47.91879" lon="-4.25568">
        <ele>30</ele>
        <time>2023-11-25T17:23:50.204Z</time>
      </trkpt>
      <trkpt lat="47.91848" lon="-4.25565">
        <ele>32</ele>
        <time>2023-11-25T17:23:43.469Z</time>
      </trkpt>
      <trkpt lat="47.91813" lon="-4.25563">
        <ele>33</ele>
        <time>2023-11-25T17:23:36.740Z</time>
      </trkpt>
      <trkpt lat="47.91786" lon="-4.25595">
        <ele>37</ele>
        <time>2023-11-25T17:23:30.018Z</time>
      </trkpt>
      <trkpt lat="47.9176" lon="-4.25638">
        <ele>41</ele>
        <time>2023-11-25T17:23:23.303Z</time>
      </trkpt>
      <trkpt lat="47.91724" lon="-4.25682">
        <ele>42</ele>
        <time>2023-11-25T17:23:16.596Z</time>
      </trkpt>
      <trkpt lat="47.91697" lon="-4.25724">
        <ele>42</ele>
        <time>2023-11-25T17:23:09.898Z</time>
      </trkpt>
      <trkpt lat="47.91676" lon="-4.2576">
        <ele>43</ele>
        <time>2023-11-25T17:23:03.208Z</time>
      </trkpt>
      <trkpt lat="47.91649" lon="-4.25791">
        <ele>42</ele>
        <time>2023-11-25T17:22:56.524Z</time>
      </trkpt>
      <trkpt lat="47.91612" lon="-4.2582">
        <ele>40</ele>
        <time>2023-11-25T17:22:49.847Z</time>
      </trkpt>
      <trkpt lat="47.91593" lon="-4.25827">
        <ele>39</ele>
        <time>2023-11-25T17:22:43.179Z</time>
      </trkpt>
      <trkpt lat="47.91574" lon="-4.25845">
        <ele>39</ele>
        <time>2023-11-25T17:22:36.515Z</time>
      </trkpt>
      <trkpt lat="47.91543" lon="-4.25878">
        <ele>44</ele>
        <time>2023-11-25T17:22:29.855Z</time>
      </trkpt>
      <trkpt lat="47.91525" lon="-4.25891">
        <ele>46</ele>
        <time>2023-11-25T17:22:23.203Z</time>
      </trkpt>
      <trkpt lat="47.91491" lon="-4.25876">
        <ele>52</ele>
        <time>2023-11-25T17:22:16.555Z</time>
      </trkpt>
      <trkpt lat="47.9146" lon="-4.25853">
        <ele>54</ele>
        <time>2023-11-25T17:22:09.914Z</time>
      </trkpt>
      <trkpt lat="47.91441" lon="-4.25843">
        <ele>54</ele>
        <time>2023-11-25T17:22:03.280Z</time>
      </trkpt>
      <trkpt lat="47.91427" lon="-4.25892">
        <ele>55</ele>
        <time>2023-11-25T17:21:56.650Z</time>
      </trkpt>
      <trkpt lat="47.91407" lon="-4.25945">
        <ele>56</ele>
        <time>2023-11-25T17:21:50.027Z</time>
      </trkpt>
      <trkpt lat="47.91383" lon="-4.26004">
        <ele>57</ele>
        <time>2023-11-25T17:21:43.412Z</time>
      </trkpt>
      <trkpt lat="47.91354" lon="-4.26081">
        <ele>56</ele>
        <time>2023-11-25T17:21:36.806Z</time>
      </trkpt>
      <trkpt lat="47.91334" lon="-4.26157">
        <ele>60</ele>
        <time>2023-11-25T17:21:30.212Z</time>
      </trkpt>
      <trkpt lat="47.91313" lon="-4.26227">
        <ele>63</ele>
        <time>2023-11-25T17:21:23.629Z</time>
      </trkpt>
      <trkpt lat="47.91286" lon="-4.26309">
        <ele>65</ele>
        <time>2023-11-25T17:21:17.057Z</time>
      </trkpt>
      <trkpt lat="47.91227" lon="-4.26283">
        <ele>64</ele>
        <time>2023-11-25T17:21:10.497Z</time>
      </trkpt>
      <trkpt lat="47.91173" lon="-4.26253">
        <ele>61</ele>
        <time>2023-11-25T17:21:03.949Z</time>
      </trkpt>
      <trkpt lat="47.91128" lon="-4.2623">
        <ele>58</ele>
        <time>2023-11-25T17:20:57.413Z</time>
      </trkpt>
      <trkpt lat="47.91076" lon="-4.26201">
        <ele>57</ele>
        <time>2023-11-25T17:20:50.886Z</time>
      </trkpt>
      <trkpt lat="47.91017" lon="-4.26166">
        <ele>57</ele>
        <time>2023-11-25T17:20:44.370Z</time>
      </trkpt>
      <trkpt lat="47.90976" lon="-4.26138">
        <ele>55</ele>
        <time>2023-11-25T17:20:37.867Z</time>
      </trkpt>
      <trkpt lat="47.90963" lon="-4.26171">
        <ele>55</ele>
        <time>2023-11-25T17:20:31.373Z</time>
      </trkpt>
      <trkpt lat="47.9095" lon="-4.26205">
        <ele>55</ele>
        <time>2023-11-25T17:20:24.884Z</time>
      </trkpt>
      <trkpt lat="47.90928" lon="-4.26247">
        <ele>55</ele>
        <time>2023-11-25T17:20:18.401Z</time>
      </trkpt>
      <trkpt lat="47.90915" lon="-4.26263">
        <ele>55</ele>
        <time>2023-11-25T17:20:11.925Z</time>
      </trkpt>
      <trkpt lat="47.90895" lon="-4.263">
        <ele>56</ele>
        <time>2023-11-25T17:20:05.452Z</time>
      </trkpt>
      <trkpt lat="47.90854" lon="-4.26277">
        <ele>56</ele>
        <time>2023-11-25T17:19:58.986Z</time>
      </trkpt>
      <trkpt lat="47.90804" lon="-4.26247">
        <ele>58</ele>
        <time>2023-11-25T17:19:52.528Z</time>
      </trkpt>
      <trkpt lat="47.90779" lon="-4.26234">
        <ele>59</ele>
        <time>2023-11-25T17:19:46.081Z</time>
      </trkpt>
      <trkpt lat="47.90721" lon="-4.26223">
        <ele>59</ele>
        <time>2023-11-25T17:19:39.639Z</time>
      </trkpt>
      <trkpt lat="47.90684" lon="-4.26207">
        <ele>58</ele>
        <time>2023-11-25T17:19:33.209Z</time>
      </trkpt>
      <trkpt lat="47.90626" lon="-4.26161">
        <ele>56</ele>
        <time>2023-11-25T17:19:26.787Z</time>
      </trkpt>
      <trkpt lat="47.90577" lon="-4.2613">
        <ele>54</ele>
        <time>2023-11-25T17:19:20.378Z</time>
      </trkpt>
      <trkpt lat="47.90526" lon="-4.26093">
        <ele>51</ele>
        <time>2023-11-25T17:19:13.980Z</time>
      </trkpt>
      <trkpt lat="47.90478" lon="-4.26062">
        <ele>49</ele>
        <time>2023-11-25T17:19:07.593Z</time>
      </trkpt>
      <trkpt lat="47.90425" lon="-4.26028">
        <ele>48</ele>
        <time>2023-11-25T17:19:01.216Z</time>
      </trkpt>
      <trkpt lat="47.90382" lon="-4.2601">
        <ele>48</ele>
        <time>2023-11-25T17:18:54.851Z</time>
      </trkpt>
      <trkpt lat="47.90347" lon="-4.25995">
        <ele>48</ele>
        <time>2023-11-25T17:18:48.495Z</time>
      </trkpt>
      <trkpt lat="47.90303" lon="-4.25976">
        <ele>49</ele>
        <time>2023-11-25T17:18:42.146Z</time>
      </trkpt>
      <trkpt lat="47.90257" lon="-4.25959">
        <ele>48</ele>
        <time>2023-11-25T17:18:35.806Z</time>
      </trkpt>
      <trkpt lat="47.9023" lon="-4.25918">
        <ele>48</ele>
        <time>2023-11-25T17:18:29.476Z</time>
      </trkpt>
      <trkpt lat="47.90205" lon="-4.25873">
        <ele>47</ele>
        <time>2023-11-25T17:18:23.153Z</time>
      </trkpt>
      <trkpt lat="47.90167" lon="-4.25802">
        <ele>47</ele>
        <time>2023-11-25T17:18:16.838Z</time>
      </trkpt>
      <trkpt lat="47.90147" lon="-4.25774">
        <ele>48</ele>
        <time>2023-11-25T17:18:10.536Z</time>
      </trkpt>
      <trkpt lat="47.90114" lon="-4.25716">
        <ele>47</ele>
        <time>2023-11-25T17:18:04.239Z</time>
      </trkpt>
      <trkpt lat="47.90091" lon="-4.25686">
        <ele>47</ele>
        <time>2023-11-25T17:17:57.952Z</time>
      </trkpt>
      <trkpt lat="47.90041" lon="-4.25653">
        <ele>47</ele>
        <time>2023-11-25T17:17:51.671Z</time>
      </trkpt>
      <trkpt lat="47.89994" lon="-4.25617">
        <ele>47</ele>
        <time>2023-11-25T17:17:45.401Z</time>
      </trkpt>
      <trkpt lat="47.89938" lon="-4.25583">
        <ele>45</ele>
        <time>2023-11-25T17:17:39.142Z</time>
      </trkpt>
      <trkpt lat="47.89915" lon="-4.25572">
        <ele>44</ele>
        <time>2023-11-25T17:17:32.895Z</time>
      </trkpt>
      <trkpt lat="47.8988" lon="-4.25556">
        <ele>42</ele>
        <time>2023-11-25T17:17:26.653Z</time>
      </trkpt>
      <trkpt lat="47.89861" lon="-4.25555">
        <ele>42</ele>
        <time>2023-11-25T17:17:20.418Z</time>
      </trkpt>
      <trkpt lat="47.89829" lon="-4.25555">
        <ele>40</ele>
        <time>2023-11-25T17:17:14.187Z</time>
      </trkpt>
      <trkpt lat="47.89807" lon="-4.25569">
        <ele>38</ele>
        <time>2023-11-25T17:17:07.962Z</time>
      </trkpt>
      <trkpt lat="47.89764" lon="-4.25599">
        <ele>35</ele>
        <time>2023-11-25T17:17:01.742Z</time>
      </trkpt>
      <trkpt lat="47.89736" lon="-4.25637">
        <ele>32</ele>
        <time>2023-11-25T17:16:55.532Z</time>
      </trkpt>
      <trkpt lat="47.89723" lon="-4.25654">
        <ele>30</ele>
        <time>2023-11-25T17:16:49.329Z</time>
      </trkpt>
      <trkpt lat="47.89705" lon="-4.25693">
        <ele>27</ele>
        <time>2023-11-25T17:16:43.130Z</time>
      </trkpt>
      <trkpt lat="47.8968" lon="-4.25752">
        <ele>31</ele>
        <time>2023-11-25T17:16:36.937Z</time>
      </trkpt>
      <trkpt lat="47.89631" lon="-4.25729">
        <ele>32</ele>
        <time>2023-11-25T17:16:30.754Z</time>
      </trkpt>
      <trkpt lat="47.89584" lon="-4.25695">
        <ele>30</ele>
        <time>2023-11-25T17:16:24.581Z</time>
      </trkpt>
      <trkpt lat="47.89538" lon="-4.25656">
        <ele>28</ele>
        <time>2023-11-25T17:16:18.418Z</time>
      </trkpt>
      <trkpt lat="47.89475" lon="-4.25609">
        <ele>27</ele>
        <time>2023-11-25T17:16:12.266Z</time>
      </trkpt>
      <trkpt lat="47.89434" lon="-4.25579">
        <ele>26</ele>
        <time>2023-11-25T17:16:06.128Z</time>
      </trkpt>
      <trkpt lat="47.89386" lon="-4.25545">
        <ele>25</ele>
        <time>2023-11-25T17:15:59.999Z</time>
      </trkpt>
      <trkpt lat="47.89332" lon="-4.25486">
        <ele>24</ele>
        <time>2023-11-25T17:15:53.881Z</time>
      </trkpt>
      <trkpt lat="47.89294" lon="-4.25446">
        <ele>24</ele>
        <time>2023-11-25T17:15:47.776Z</time>
      </trkpt>
      <trkpt lat="47.89247" lon="-4.25395">
        <ele>26</ele>
        <time>2023-11-25T17:15:41.681Z</time>
      </trkpt>
      <trkpt lat="47.89213" lon="-4.25353">
        <ele>28</ele>
        <time>2023-11-25T17:15:35.597Z</time>
      </trkpt>
      <trkpt lat="47.89187" lon="-4.25318">
        <ele>28</ele>
        <time>2023-11-25T17:15:29.522Z</time>
      </trkpt>
      <trkpt lat="47.8915" lon="-4.25273">
        <ele>29</ele>
        <time>2023-11-25T17:15:23.454Z</time>
      </trkpt>
      <trkpt lat="47.8912" lon="-4.25243">
        <ele>30</ele>
        <time>2023-11-25T17:15:17.396Z</time>
      </trkpt>
      <trkpt lat="47.89084" lon="-4.25206">
        <ele>32</ele>
        <time>2023-11-25T17:15:11.345Z</time>
      </trkpt>
      <trkpt lat="47.89051" lon="-4.25175">
        <ele>33</ele>
        <time>2023-11-25T17:15:05.303Z</time>
      </trkpt>
      <trkpt lat="47.89029" lon="-4.25151">
        <ele>33</ele>
        <time>2023-11-25T17:14:59.269Z</time>
      </trkpt>
      <trkpt lat="47.89004" lon="-4.25119">
        <ele>33</ele>
        <time>2023-11-25T17:14:53.240Z</time>
      </trkpt>
      <trkpt lat="47.88952" lon="-4.25103">
        <ele>32</ele>
        <time>2023-11-25T17:14:47.218Z</time>
      </trkpt>
      <trkpt lat="47.88908" lon="-4.25089">
        <ele>31</ele>
        <time>2023-11-25T17:14:41.206Z</time>
      </trkpt>
      <trkpt lat="47.88857" lon="-4.25128">
        <ele>32</ele>
        <time>2023-11-25T17:14:35.203Z</time>
      </trkpt>
      <trkpt lat="47.88814" lon="-4.25148">
        <ele>32</ele>
        <time>2023-11-25T17:14:29.212Z</time>
      </trkpt>
      <trkpt lat="47.88755" lon="-4.25157">
        <ele>31</ele>
        <time>2023-11-25T17:14:23.230Z</time>
      </trkpt>
      <trkpt lat="47.88715" lon="-4.25169">
        <ele>31</ele>
        <time>2023-11-25T17:14:17.260Z</time>
      </trkpt>
      <trkpt lat="47.88655" lon="-4.25213">
        <ele>32</ele>
        <time>2023-11-25T17:14:11.298Z</time>
      </trkpt>
      <trkpt lat="47.88595" lon="-4.25201">
        <ele>31</ele>
        <time>2023-11-25T17:14:05.349Z</time>
      </trkpt>
      <trkpt lat="47.88576" lon="-4.2521">
        <ele>31</ele>
        <time>2023-11-25T17:13:59.412Z</time>
      </trkpt>
      <trkpt lat="47.88577" lon="-4.25165">
        <ele>30</ele>
        <time>2023-11-25T17:13:53.479Z</time>
      </trkpt>
      <trkpt lat="47.88596" lon="-4.251">
        <ele>29</ele>
        <time>2023-11-25T17:13:47.552Z</time>
      </trkpt>
      <trkpt lat="47.88518" lon="-4.25054">
        <ele>27</ele>
        <time>2023-11-25T17:13:41.635Z</time>
      </trkpt>
      <trkpt lat="47.88548" lon="-4.24965">
        <ele>25</ele>
        <time>2023-11-25T17:13:35.735Z</time>
      </trkpt>
      <trkpt lat="47.88515" lon="-4.24946">
        <ele>26</ele>
        <time>2023-11-25T17:13:29.848Z</time>
      </trkpt>
      <trkpt lat="47.88485" lon="-4.24919">
        <ele>28</ele>
        <time>2023-11-25T17:13:23.968Z</time>
      </trkpt>
      <trkpt lat="47.8846" lon="-4.24906">
        <ele>29</ele>
        <time>2023-11-25T17:13:18.095Z</time>
      </trkpt>
      <trkpt lat="47.8842" lon="-4.24879">
        <ele>31</ele>
        <time>2023-11-25T17:13:12.227Z</time>
      </trkpt>
      <trkpt lat="47.88421" lon="-4.24854">
        <ele>31</ele>
        <time>2023-11-25T17:13:06.368Z</time>
      </trkpt>
      <trkpt lat="47.88441" lon="-4.24792">
        <ele>30</ele>
        <time>2023-11-25T17:13:00.513Z</time>
      </trkpt>
      <trkpt lat="47.8845" lon="-4.24738">
        <ele>29</ele>
        <time>2023-11-25T17:12:54.667Z</time>
      </trkpt>
      <trkpt lat="47.88468" lon="-4.24682">
        <ele>28</ele>
        <time>2023-11-25T17:12:48.828Z</time>
      </trkpt>
      <trkpt lat="47.8849" lon="-4.24634">
        <ele>26</ele>
        <time>2023-11-25T17:12:42.998Z</time>
      </trkpt>
      <trkpt lat="47.88511" lon="-4.24588">
        <ele>25</ele>
        <time>2023-11-25T17:12:37.175Z</time>
      </trkpt>
      <trkpt lat="47.88511" lon="-4.24568">
        <ele>24</ele>
        <time>2023-11-25T17:12:31.360Z</time>
      </trkpt>
      <trkpt lat="47.88489" lon="-4.24549">
        <ele>25</ele>
        <time>2023-11-25T17:12:25.548Z</time>
      </trkpt>
      <trkpt lat="47.88467" lon="-4.24529">
        <ele>26</ele>
        <time>2023-11-25T17:12:19.741Z</time>
      </trkpt>
      <trkpt lat="47.88448" lon="-4.245">
        <ele>27</ele>
        <time>2023-11-25T17:12:13.939Z</time>
      </trkpt>
      <trkpt lat="47.88418" lon="-4.24459">
        <ele>28</ele>
        <time>2023-11-25T17:12:08.142Z</time>
      </trkpt>
      <trkpt lat="47.88392" lon="-4.24424">
        <ele>27</ele>
        <time>2023-11-25T17:12:02.353Z</time>
      </trkpt>
      <trkpt lat="47.88381" lon="-4.24421">
        <ele>27</ele>
        <time>2023-11-25T17:11:56.571Z</time>
      </trkpt>
      <trkpt lat="47.88367" lon="-4.24396">
        <ele>27</ele>
        <time>2023-11-25T17:11:50.792Z</time>
      </trkpt>
      <trkpt lat="47.8833" lon="-4.24349">
        <ele>25</ele>
        <time>2023-11-25T17:11:45.017Z</time>
      </trkpt>
      <trkpt lat="47.88301" lon="-4.24312">
        <ele>23</ele>
        <time>2023-11-25T17:11:39.252Z</time>
      </trkpt>
      <trkpt lat="47.88267" lon="-4.24266">
        <ele>21</ele>
        <time>2023-11-25T17:11:33.494Z</time>
      </trkpt>
      <trkpt lat="47.88209" lon="-4.242">
        <ele>21</ele>
        <time>2023-11-25T17:11:27.746Z</time>
      </trkpt>
      <trkpt lat="47.88173" lon="-4.24157">
        <ele>23</ele>
        <time>2023-11-25T17:11:22.012Z</time>
      </trkpt>
      <trkpt lat="47.88136" lon="-4.24115">
        <ele>24</ele>
        <time>2023-11-25T17:11:16.287Z</time>
      </trkpt>
      <trkpt lat="47.88109" lon="-4.2407">
        <ele>24</ele>
        <time>2023-11-25T17:11:10.572Z</time>
      </trkpt>
      <trkpt lat="47.88083" lon="-4.24027">
        <ele>23</ele>
        <time>2023-11-25T17:11:04.865Z</time>
      </trkpt>
      <trkpt lat="47.88049" lon="-4.23982">
        <ele>22</ele>
        <time>2023-11-25T17:10:59.166Z</time>
      </trkpt>
      <trkpt lat="47.88034" lon="-4.2398">
        <ele>22</ele>
        <time>2023-11-25T17:10:53.476Z</time>
      </trkpt>
      <trkpt lat="47.88" lon="-4.23976">
        <ele>21</ele>
        <time>2023-11-25T17:10:47.789Z</time>
      </trkpt>
      <trkpt lat="47.87983" lon="-4.23964">
        <ele>20</ele>
        <time>2023-11-25T17:10:42.109Z</time>
      </trkpt>
      <trkpt lat="47.87958" lon="-4.23929">
        <ele>19</ele>
        <time>2023-11-25T17:10:36.432Z</time>
      </trkpt>
      <trkpt lat="47.87932" lon="-4.23912">
        <ele>18</ele>
        <time>2023-11-25T17:10:30.762Z</time>
      </trkpt>
      <trkpt lat="47.87889" lon="-4.23888">
        <ele>18</ele>
        <time>2023-11-25T17:10:25.098Z</time>
      </trkpt>
      <trkpt lat="47.87858" lon="-4.23866">
        <ele>20</ele>
        <time>2023-11-25T17:10:19.443Z</time>
      </trkpt>
      <trkpt lat="47.87817" lon="-4.23844">
        <ele>23</ele>
        <time>2023-11-25T17:10:13.795Z</time>
      </trkpt>
      <trkpt lat="47.87786" lon="-4.23837">
        <ele>25</ele>
        <time>2023-11-25T17:10:08.156Z</time>
      </trkpt>
      <trkpt lat="47.87745" lon="-4.23844">
        <ele>26</ele>
        <time>2023-11-25T17:10:02.523Z</time>
      </trkpt>
      <trkpt lat="47.87745" lon="-4.23844">
        <ele>26</ele>
        <time>2023-11-25T17:09:56.898Z</time>
      </trkpt>
      <trkpt lat="47.87747" lon="-4.23768">
        <ele>27</ele>
        <time>2023-11-25T17:09:51.273Z</time>
      </trkpt>
      <trkpt lat="47.87747" lon="-4.23696">
        <ele>27</ele>
        <time>2023-11-25T17:09:45.658Z</time>
      </trkpt>
      <trkpt lat="47.87745" lon="-4.23659">
        <ele>26</ele>
        <time>2023-11-25T17:09:40.053Z</time>
      </trkpt>
      <trkpt lat="47.87732" lon="-4.23597">
        <ele>27</ele>
        <time>2023-11-25T17:09:34.453Z</time>
      </trkpt>
      <trkpt lat="47.87713" lon="-4.23523">
        <ele>27</ele>
        <time>2023-11-25T17:09:28.862Z</time>
      </trkpt>
      <trkpt lat="47.87712" lon="-4.23452">
        <ele>27</ele>
        <time>2023-11-25T17:09:23.282Z</time>
      </trkpt>
      <trkpt lat="47.87725" lon="-4.23383">
        <ele>25</ele>
        <time>2023-11-25T17:09:17.711Z</time>
      </trkpt>
      <trkpt lat="47.87744" lon="-4.23317">
        <ele>25</ele>
        <time>2023-11-25T17:09:12.150Z</time>
      </trkpt>
      <trkpt lat="47.87756" lon="-4.23248">
        <ele>24</ele>
        <time>2023-11-25T17:09:06.598Z</time>
      </trkpt>
      <trkpt lat="47.87755" lon="-4.23188">
        <ele>25</ele>
        <time>2023-11-25T17:09:01.056Z</time>
      </trkpt>
      <trkpt lat="47.87736" lon="-4.23123">
        <ele>24</ele>
        <time>2023-11-25T17:08:55.522Z</time>
      </trkpt>
      <trkpt lat="47.8772" lon="-4.23086">
        <ele>24</ele>
        <time>2023-11-25T17:08:49.998Z</time>
      </trkpt>
      <trkpt lat="47.87701" lon="-4.23045">
        <ele>23</ele>
        <time>2023-11-25T17:08:44.480Z</time>
      </trkpt>
      <trkpt lat="47.87671" lon="-4.22978">
        <ele>23</ele>
        <time>2023-11-25T17:08:38.968Z</time>
      </trkpt>
      <trkpt lat="47.87649" lon="-4.22928">
        <ele>21</ele>
        <time>2023-11-25T17:08:33.467Z</time>
      </trkpt>
      <trkpt lat="47.87627" lon="-4.22875">
        <ele>19</ele>
        <time>2023-11-25T17:08:27.974Z</time>
      </trkpt>
      <trkpt lat="47.87605" lon="-4.22827">
        <ele>16</ele>
        <time>2023-11-25T17:08:22.490Z</time>
      </trkpt>
      <trkpt lat="47.87587" lon="-4.22789">
        <ele>12</ele>
        <time>2023-11-25T17:08:17.013Z</time>
      </trkpt>
      <trkpt lat="47.87556" lon="-4.22729">
        <ele>7</ele>
        <time>2023-11-25T17:08:11.543Z</time>
      </trkpt>
      <trkpt lat="47.87528" lon="-4.22665">
        <ele>7</ele>
        <time>2023-11-25T17:08:06.083Z</time>
      </trkpt>
      <trkpt lat="47.87519" lon="-4.22632">
        <ele>6</ele>
        <time>2023-11-25T17:08:00.633Z</time>
      </trkpt>
      <trkpt lat="47.87498" lon="-4.22574">
        <ele>6</ele>
        <time>2023-11-25T17:07:55.188Z</time>
      </trkpt>
      <trkpt lat="47.87486" lon="-4.22537">
        <ele>5</ele>
        <time>2023-11-25T17:07:49.752Z</time>
      </trkpt>
      <trkpt lat="47.87468" lon="-4.22526">
        <ele>5</ele>
        <time>2023-11-25T17:07:44.321Z</time>
      </trkpt>
      <trkpt lat="47.87451" lon="-4.22523">
        <ele>5</ele>
        <time>2023-11-25T17:07:38.894Z</time>
      </trkpt>
      <trkpt lat="47.87421" lon="-4.225">
        <ele>5</ele>
        <time>2023-11-25T17:07:33.471Z</time>
      </trkpt>
      <trkpt lat="47.87413" lon="-4.22481">
        <ele>6</ele>
        <time>2023-11-25T17:07:28.054Z</time>
      </trkpt>
      <trkpt lat="47.87402" lon="-4.22438">
        <ele>8</ele>
        <time>2023-11-25T17:07:22.640Z</time>
      </trkpt>
      <trkpt lat="47.87393" lon="-4.22422">
        <ele>9</ele>
        <time>2023-11-25T17:07:17.232Z</time>
      </trkpt>
      <trkpt lat="47.87372" lon="-4.22449">
        <ele>9</ele>
        <time>2023-11-25T17:07:11.827Z</time>
      </trkpt>
      <trkpt lat="47.87356" lon="-4.22464">
        <ele>9</ele>
        <time>2023-11-25T17:07:06.428Z</time>
      </trkpt>
      <trkpt lat="47.8735" lon="-4.22498">
        <ele>7</ele>
        <time>2023-11-25T17:07:01.033Z</time>
      </trkpt>
      <trkpt lat="47.87353" lon="-4.22527">
        <ele>5</ele>
        <time>2023-11-25T17:06:55.643Z</time>
      </trkpt>
      <trkpt lat="47.87327" lon="-4.22526">
        <ele>5</ele>
        <time>2023-11-25T17:06:50.256Z</time>
      </trkpt>
      <trkpt lat="47.87321" lon="-4.22542">
        <ele>5</ele>
        <time>2023-11-25T17:06:44.875Z</time>
      </trkpt>
      <trkpt lat="47.87312" lon="-4.22567">
        <ele>5</ele>
        <time>2023-11-25T17:06:39.496Z</time>
      </trkpt>
      <trkpt lat="47.87299" lon="-4.22583">
        <ele>5</ele>
        <time>2023-11-25T17:06:34.121Z</time>
      </trkpt>
      <trkpt lat="47.87265" lon="-4.2259">
        <ele>5</ele>
        <time>2023-11-25T17:06:28.749Z</time>
      </trkpt>
      <trkpt lat="47.87233" lon="-4.22606">
        <ele>5</ele>
        <time>2023-11-25T17:06:23.384Z</time>
      </trkpt>
      <trkpt lat="47.87208" lon="-4.22608">
        <ele>5</ele>
        <time>2023-11-25T17:06:18.026Z</time>
      </trkpt>
      <trkpt lat="47.87185" lon="-4.22595">
        <ele>6</ele>
        <time>2023-11-25T17:06:12.673Z</time>
      </trkpt>
      <trkpt lat="47.87162" lon="-4.22602">
        <ele>5</ele>
        <time>2023-11-25T17:06:07.325Z</time>
      </trkpt>
      <trkpt lat="47.87133" lon="-4.22621">
        <ele>5</ele>
        <time>2023-11-25T17:06:01.982Z</time>
      </trkpt>
      <trkpt lat="47.87095" lon="-4.22601">
        <ele>5</ele>
        <time>2023-11-25T17:05:56.645Z</time>
      </trkpt>
      <trkpt lat="47.87072" lon="-4.22608">
        <ele>5</ele>
        <time>2023-11-25T17:05:51.316Z</time>
      </trkpt>
      <trkpt lat="47.87047" lon="-4.22596">
        <ele>5</ele>
        <time>2023-11-25T17:05:45.992Z</time>
      </trkpt>
      <trkpt lat="47.87016" lon="-4.22591">
        <ele>5</ele>
        <time>2023-11-25T17:05:40.673Z</time>
      </trkpt>
      <trkpt lat="47.86985" lon="-4.22594">
        <ele>5</ele>
        <time>2023-11-25T17:05:35.360Z</time>
      </trkpt>
      <trkpt lat="47.86955" lon="-4.22597">
        <ele>5</ele>
        <time>2023-11-25T17:05:30.053Z</time>
      </trkpt>
      <trkpt lat="47.86944" lon="-4.2258">
        <ele>5</ele>
        <time>2023-11-25T17:05:24.752Z</time>
      </trkpt>
      <trkpt lat="47.86933" lon="-4.2255">
        <ele>5</ele>
        <time>2023-11-25T17:05:19.455Z</time>
      </trkpt>
      <trkpt lat="47.86921" lon="-4.22505">
        <ele>4</ele>
        <time>2023-11-25T17:05:14.162Z</time>
      </trkpt>
      <trkpt lat="47.86919" lon="-4.22488">
        <ele>4</ele>
        <time>2023-11-25T17:05:08.876Z</time>
      </trkpt>
      <trkpt lat="47.86936" lon="-4.22479">
        <ele>5</ele>
        <time>2023-11-25T17:05:03.592Z</time>
      </trkpt>
      <trkpt lat="47.86957" lon="-4.22466">
        <ele>5</ele>
        <time>2023-11-25T17:04:58.312Z</time>
      </trkpt>
      <trkpt lat="47.86948" lon="-4.22425">
        <ele>6</ele>
        <time>2023-11-25T17:04:53.036Z</time>
      </trkpt>
      <trkpt lat="47.86938" lon="-4.22393">
        <ele>6</ele>
        <time>2023-11-25T17:04:47.766Z</time>
      </trkpt>
      <trkpt lat="47.86925" lon="-4.22338">
        <ele>7</ele>
        <time>2023-11-25T17:04:42.501Z</time>
      </trkpt>
      <trkpt lat="47.8691" lon="-4.22291">
        <ele>7</ele>
        <time>2023-11-25T17:04:37.244Z</time>
      </trkpt>
      <trkpt lat="47.86893" lon="-4.22224">
        <ele>6</ele>
        <time>2023-11-25T17:04:31.994Z</time>
      </trkpt>
      <trkpt lat="47.86856" lon="-4.22237">
        <ele>7</ele>
        <time>2023-11-25T17:04:26.753Z</time>
      </trkpt>
      <trkpt lat="47.86831" lon="-4.22234">
        <ele>6</ele>
        <time>2023-11-25T17:04:21.520Z</time>
      </trkpt>
      <trkpt lat="47.86799" lon="-4.22234">
        <ele>5</ele>
        <time>2023-11-25T17:04:16.292Z</time>
      </trkpt>
      <trkpt lat="47.86804" lon="-4.22207">
        <ele>5</ele>
        <time>2023-11-25T17:04:11.070Z</time>
      </trkpt>
      <trkpt lat="47.8679" lon="-4.22159">
        <ele>5</ele>
        <time>2023-11-25T17:04:05.852Z</time>
      </trkpt>
      <trkpt lat="47.86781" lon="-4.22116">
        <ele>5</ele>
        <time>2023-11-25T17:04:00.641Z</time>
      </trkpt>
      <trkpt lat="47.86782" lon="-4.22054">
        <ele>5</ele>
        <time>2023-11-25T17:03:55.436Z</time>
      </trkpt>
      <trkpt lat="47.86793" lon="-4.21985">
        <ele>5</ele>
        <time>2023-11-25T17:03:50.240Z</time>
      </trkpt>
      <trkpt lat="47.86797" lon="-4.21901">
        <ele>5</ele>
        <time>2023-11-25T17:03:45.053Z</time>
      </trkpt>
      <trkpt lat="47.86832" lon="-4.21912">
        <ele>6</ele>
        <time>2023-11-25T17:03:39.877Z</time>
      </trkpt>
      <trkpt lat="47.86872" lon="-4.21924">
        <ele>6</ele>
        <time>2023-11-25T17:03:34.709Z</time>
      </trkpt>
      <trkpt lat="47.86873" lon="-4.21904">
        <ele>6</ele>
        <time>2023-11-25T17:03:29.549Z</time>
      </trkpt>
      <trkpt lat="47.86877" lon="-4.21848">
        <ele>7</ele>
        <time>2023-11-25T17:03:24.391Z</time>
      </trkpt>
      <trkpt lat="47.86886" lon="-4.2179">
        <ele>7</ele>
        <time>2023-11-25T17:03:19.241Z</time>
      </trkpt>
      <trkpt lat="47.86902" lon="-4.21755">
        <ele>7</ele>
        <time>2023-11-25T17:03:14.099Z</time>
      </trkpt>
      <trkpt lat="47.86931" lon="-4.21759">
        <ele>7</ele>
        <time>2023-11-25T17:03:08.963Z</time>
      </trkpt>
      <trkpt lat="47.86981" lon="-4.21768">
        <ele>8</ele>
        <time>2023-11-25T17:03:03.832Z</time>
      </trkpt>
      <trkpt lat="47.87028" lon="-4.21771">
        <ele>9</ele>
        <time>2023-11-25T17:02:58.712Z</time>
      </trkpt>
      <trkpt lat="47.87038" lon="-4.21717">
        <ele>8</ele>
        <time>2023-11-25T17:02:53.601Z</time>
      </trkpt>
      <trkpt lat="47.87052" lon="-4.21628">
        <ele>8</ele>
        <time>2023-11-25T17:02:48.498Z</time>
      </trkpt>
      <trkpt lat="47.87066" lon="-4.216">
        <ele>8</ele>
        <time>2023-11-25T17:02:43.407Z</time>
      </trkpt>
      <trkpt lat="47.87092" lon="-4.21542">
        <ele>7</ele>
        <time>2023-11-25T17:02:38.321Z</time>
      </trkpt>
      <trkpt lat="47.87118" lon="-4.21502">
        <ele>7</ele>
        <time>2023-11-25T17:02:33.244Z</time>
      </trkpt>
      <trkpt lat="47.87113" lon="-4.21461">
        <ele>6</ele>
        <time>2023-11-25T17:02:28.174Z</time>
      </trkpt>
      <trkpt lat="47.87121" lon="-4.21409">
        <ele>6</ele>
        <time>2023-11-25T17:02:23.110Z</time>
      </trkpt>
      <trkpt lat="47.87135" lon="-4.21335">
        <ele>5</ele>
        <time>2023-11-25T17:02:18.053Z</time>
      </trkpt>
      <trkpt lat="47.87146" lon="-4.21264">
        <ele>5</ele>
        <time>2023-11-25T17:02:13.007Z</time>
      </trkpt>
      <trkpt lat="47.87154" lon="-4.21164">
        <ele>6</ele>
        <time>2023-11-25T17:02:07.970Z</time>
      </trkpt>
      <trkpt lat="47.87156" lon="-4.21115">
        <ele>7</ele>
        <time>2023-11-25T17:02:02.947Z</time>
      </trkpt>
      <trkpt lat="47.87152" lon="-4.21047">
        <ele>8</ele>
        <time>2023-11-25T17:01:57.931Z</time>
      </trkpt>
      <trkpt lat="47.87146" lon="-4.20971">
        <ele>9</ele>
        <time>2023-11-25T17:01:52.924Z</time>
      </trkpt>
      <trkpt lat="47.87142" lon="-4.20903">
        <ele>9</ele>
        <time>2023-11-25T17:01:47.927Z</time>
      </trkpt>
      <trkpt lat="47.87141" lon="-4.20833">
        <ele>8</ele>
        <time>2023-11-25T17:01:42.939Z</time>
      </trkpt>
      <trkpt lat="47.87146" lon="-4.20763">
        <ele>8</ele>
        <time>2023-11-25T17:01:37.961Z</time>
      </trkpt>
      <trkpt lat="47.87147" lon="-4.20677">
        <ele>8</ele>
        <time>2023-11-25T17:01:32.992Z</time>
      </trkpt>
      <trkpt lat="47.87154" lon="-4.20623">
        <ele>8</ele>
        <time>2023-11-25T17:01:28.035Z</time>
      </trkpt>
      <trkpt lat="47.87168" lon="-4.20615">
        <ele>7</ele>
        <time>2023-11-25T17:01:23.085Z</time>
      </trkpt>
      <trkpt lat="47.87191" lon="-4.20564">
        <ele>7</ele>
        <time>2023-11-25T17:01:18.138Z</time>
      </trkpt>
      <trkpt lat="47.87211" lon="-4.20499">
        <ele>6</ele>
        <time>2023-11-25T17:01:13.199Z</time>
      </trkpt>
      <trkpt lat="47.8724" lon="-4.20406">
        <ele>5</ele>
        <time>2023-11-25T17:01:08.270Z</time>
      </trkpt>
      <trkpt lat="47.8726" lon="-4.20353">
        <ele>4</ele>
        <time>2023-11-25T17:01:03.355Z</time>
      </trkpt>
      <trkpt lat="47.87294" lon="-4.20273">
        <ele>2</ele>
        <time>2023-11-25T17:00:58.448Z</time>
      </trkpt>
      <trkpt lat="47.87339" lon="-4.20306">
        <ele>2</ele>
        <time>2023-11-25T17:00:53.554Z</time>
      </trkpt>
      <trkpt lat="47.87383" lon="-4.20338">
        <ele>2</ele>
        <time>2023-11-25T17:00:48.670Z</time>
      </trkpt>
      <trkpt lat="47.8743" lon="-4.20369">
        <ele>2</ele>
        <time>2023-11-25T17:00:43.796Z</time>
      </trkpt>
      <trkpt lat="47.87457" lon="-4.20319">
        <ele>2</ele>
        <time>2023-11-25T17:00:38.932Z</time>
      </trkpt>
      <trkpt lat="47.8749" lon="-4.20249">
        <ele>2</ele>
        <time>2023-11-25T17:00:34.077Z</time>
      </trkpt>
      <trkpt lat="47.8753" lon="-4.20163">
        <ele>3</ele>
        <time>2023-11-25T17:00:29.233Z</time>
      </trkpt>
      <trkpt lat="47.87566" lon="-4.20179">
        <ele>4</ele>
        <time>2023-11-25T17:00:24.403Z</time>
      </trkpt>
      <trkpt lat="47.87609" lon="-4.202">
        <ele>5</ele>
        <time>2023-11-25T17:00:19.581Z</time>
      </trkpt>
      <trkpt lat="47.87642" lon="-4.20214">
        <ele>6</ele>
        <time>2023-11-25T17:00:14.768Z</time>
      </trkpt>
      <trkpt lat="47.87684" lon="-4.20231">
        <ele>7</ele>
        <time>2023-11-25T17:00:09.961Z</time>
      </trkpt>
      <trkpt lat="47.87743" lon="-4.20232">
        <ele>13</ele>
        <time>2023-11-25T17:00:05.163Z</time>
      </trkpt>
      <trkpt lat="47.87742" lon="-4.2026">
        <ele>13</ele>
        <time>2023-11-25T17:00:00.377Z</time>
      </trkpt>
      <trkpt lat="47.87745" lon="-4.20319">
        <ele>14</ele>
        <time>2023-11-25T16:59:55.595Z</time>
      </trkpt>
      <trkpt lat="47.87746" lon="-4.20358">
        <ele>14</ele>
        <time>2023-11-25T16:59:50.821Z</time>
      </trkpt>
      <trkpt lat="47.87769" lon="-4.20389">
        <ele>17</ele>
        <time>2023-11-25T16:59:46.052Z</time>
      </trkpt>
      <trkpt lat="47.87792" lon="-4.20402">
        <ele>20</ele>
        <time>2023-11-25T16:59:41.289Z</time>
      </trkpt>
      <trkpt lat="47.87819" lon="-4.20409">
        <ele>22</ele>
        <time>2023-11-25T16:59:36.531Z</time>
      </trkpt>
      <trkpt lat="47.87824" lon="-4.20357">
        <ele>23</ele>
        <time>2023-11-25T16:59:31.779Z</time>
      </trkpt>
      <trkpt lat="47.87831" lon="-4.20266">
        <ele>23</ele>
        <time>2023-11-25T16:59:27.033Z</time>
      </trkpt>
      <trkpt lat="47.87837" lon="-4.20183">
        <ele>23</ele>
        <time>2023-11-25T16:59:22.300Z</time>
      </trkpt>
      <trkpt lat="47.87865" lon="-4.2019">
        <ele>24</ele>
        <time>2023-11-25T16:59:17.578Z</time>
      </trkpt>
      <trkpt lat="47.87919" lon="-4.20211">
        <ele>27</ele>
        <time>2023-11-25T16:59:12.862Z</time>
      </trkpt>
      <trkpt lat="47.87982" lon="-4.20228">
        <ele>30</ele>
        <time>2023-11-25T16:59:08.157Z</time>
      </trkpt>
      <trkpt lat="47.88042" lon="-4.20247">
        <ele>32</ele>
        <time>2023-11-25T16:59:03.465Z</time>
      </trkpt>
      <trkpt lat="47.881" lon="-4.20266">
        <ele>32</ele>
        <time>2023-11-25T16:58:58.785Z</time>
      </trkpt>
      <trkpt lat="47.88131" lon="-4.2028">
        <ele>32</ele>
        <time>2023-11-25T16:58:54.117Z</time>
      </trkpt>
      <trkpt lat="47.88121" lon="-4.20201">
        <ele>32</ele>
        <time>2023-11-25T16:58:49.455Z</time>
      </trkpt>
      <trkpt lat="47.88117" lon="-4.20142">
        <ele>32</ele>
        <time>2023-11-25T16:58:44.804Z</time>
      </trkpt>
      <trkpt lat="47.88118" lon="-4.2006">
        <ele>31</ele>
        <time>2023-11-25T16:58:40.161Z</time>
      </trkpt>
      <trkpt lat="47.88123" lon="-4.20004">
        <ele>30</ele>
        <time>2023-11-25T16:58:35.529Z</time>
      </trkpt>
      <trkpt lat="47.88137" lon="-4.19905">
        <ele>27</ele>
        <time>2023-11-25T16:58:30.905Z</time>
      </trkpt>
      <trkpt lat="47.88137" lon="-4.19841">
        <ele>26</ele>
        <time>2023-11-25T16:58:26.294Z</time>
      </trkpt>
      <trkpt lat="47.88139" lon="-4.19744">
        <ele>25</ele>
        <time>2023-11-25T16:58:21.692Z</time>
      </trkpt>
      <trkpt lat="47.88143" lon="-4.19662">
        <ele>26</ele>
        <time>2023-11-25T16:58:17.103Z</time>
      </trkpt>
      <trkpt lat="47.88185" lon="-4.19731">
        <ele>24</ele>
        <time>2023-11-25T16:58:12.525Z</time>
      </trkpt>
      <trkpt lat="47.88207" lon="-4.19776">
        <ele>21</ele>
        <time>2023-11-25T16:58:07.960Z</time>
      </trkpt>
      <trkpt lat="47.88243" lon="-4.1978">
        <ele>17</ele>
        <time>2023-11-25T16:58:03.402Z</time>
      </trkpt>
      <trkpt lat="47.88279" lon="-4.19777">
        <ele>13</ele>
        <time>2023-11-25T16:57:58.851Z</time>
      </trkpt>
      <trkpt lat="47.88315" lon="-4.19778">
        <ele>8</ele>
        <time>2023-11-25T16:57:54.308Z</time>
      </trkpt>
      <trkpt lat="47.88331" lon="-4.19805">
        <ele>7</ele>
        <time>2023-11-25T16:57:49.772Z</time>
      </trkpt>
      <trkpt lat="47.88357" lon="-4.19836">
        <ele>6</ele>
        <time>2023-11-25T16:57:45.241Z</time>
      </trkpt>
      <trkpt lat="47.88357" lon="-4.19836">
        <ele>6</ele>
        <time>2023-11-25T16:57:40.716Z</time>
      </trkpt>
      <trkpt lat="47.88356" lon="-4.19766">
        <ele>5</ele>
        <time>2023-11-25T16:57:36.191Z</time>
      </trkpt>
      <trkpt lat="47.88357" lon="-4.19677">
        <ele>5</ele>
        <time>2023-11-25T16:57:31.676Z</time>
      </trkpt>
      <trkpt lat="47.88361" lon="-4.19602">
        <ele>5</ele>
        <time>2023-11-25T16:57:27.173Z</time>
      </trkpt>
      <trkpt lat="47.88372" lon="-4.19531">
        <ele>5</ele>
        <time>2023-11-25T16:57:22.680Z</time>
      </trkpt>
      <trkpt lat="47.88383" lon="-4.19424">
        <ele>4</ele>
        <time>2023-11-25T16:57:18.197Z</time>
      </trkpt>
      <trkpt lat="47.88402" lon="-4.19282">
        <ele>3</ele>
        <time>2023-11-25T16:57:13.728Z</time>
      </trkpt>
      <trkpt lat="47.88421" lon="-4.19147">
        <ele>3</ele>
        <time>2023-11-25T16:57:09.279Z</time>
      </trkpt>
      <trkpt lat="47.88435" lon="-4.19033">
        <ele>6</ele>
        <time>2023-11-25T16:57:04.848Z</time>
      </trkpt>
      <trkpt lat="47.88452" lon="-4.18917">
        <ele>6</ele>
        <time>2023-11-25T16:57:00.433Z</time>
      </trkpt>
      <trkpt lat="47.88461" lon="-4.1886">
        <ele>6</ele>
        <time>2023-11-25T16:56:56.034Z</time>
      </trkpt>
      <trkpt lat="47.88472" lon="-4.18779">
        <ele>5</ele>
        <time>2023-11-25T16:56:51.643Z</time>
      </trkpt>
      <trkpt lat="47.88493" lon="-4.18648">
        <ele>11</ele>
        <time>2023-11-25T16:56:47.263Z</time>
      </trkpt>
      <trkpt lat="47.88505" lon="-4.18543">
        <ele>14</ele>
        <time>2023-11-25T16:56:42.901Z</time>
      </trkpt>
      <trkpt lat="47.88483" lon="-4.18534">
        <ele>13</ele>
        <time>2023-11-25T16:56:38.553Z</time>
      </trkpt>
      <trkpt lat="47.88458" lon="-4.18517">
        <ele>14</ele>
        <time>2023-11-25T16:56:34.210Z</time>
      </trkpt>
      <trkpt lat="47.88422" lon="-4.18498">
        <ele>14</ele>
        <time>2023-11-25T16:56:29.873Z</time>
      </trkpt>
      <trkpt lat="47.88381" lon="-4.18484">
        <ele>13</ele>
        <time>2023-11-25T16:56:25.543Z</time>
      </trkpt>
      <trkpt lat="47.88368" lon="-4.18469">
        <ele>12</ele>
        <time>2023-11-25T16:56:21.222Z</time>
      </trkpt>
      <trkpt lat="47.88344" lon="-4.18423">
        <ele>13</ele>
        <time>2023-11-25T16:56:16.904Z</time>
      </trkpt>
      <trkpt lat="47.88321" lon="-4.18386">
        <ele>12</ele>
        <time>2023-11-25T16:56:12.594Z</time>
      </trkpt>
      <trkpt lat="47.88304" lon="-4.18386">
        <ele>10</ele>
        <time>2023-11-25T16:56:08.290Z</time>
      </trkpt>
      <trkpt lat="47.88283" lon="-4.18397">
        <ele>9</ele>
        <time>2023-11-25T16:56:03.990Z</time>
      </trkpt>
      <trkpt lat="47.88262" lon="-4.1843">
        <ele>8</ele>
        <time>2023-11-25T16:55:59.694Z</time>
      </trkpt>
      <trkpt lat="47.88232" lon="-4.18426">
        <ele>10</ele>
        <time>2023-11-25T16:55:55.404Z</time>
      </trkpt>
      <trkpt lat="47.88186" lon="-4.18415">
        <ele>13</ele>
        <time>2023-11-25T16:55:51.120Z</time>
      </trkpt>
      <trkpt lat="47.88152" lon="-4.18411">
        <ele>14</ele>
        <time>2023-11-25T16:55:46.846Z</time>
      </trkpt>
      <trkpt lat="47.88119" lon="-4.18434">
        <ele>11</ele>
        <time>2023-11-25T16:55:42.579Z</time>
      </trkpt>
      <trkpt lat="47.88097" lon="-4.18429">
        <ele>11</ele>
        <time>2023-11-25T16:55:38.319Z</time>
      </trkpt>
      <trkpt lat="47.88062" lon="-4.18405">
        <ele>11</ele>
        <time>2023-11-25T16:55:34.063Z</time>
      </trkpt>
      <trkpt lat="47.88042" lon="-4.18364">
        <ele>9</ele>
        <time>2023-11-25T16:55:29.815Z</time>
      </trkpt>
      <trkpt lat="47.88019" lon="-4.18317">
        <ele>5</ele>
        <time>2023-11-25T16:55:25.574Z</time>
      </trkpt>
      <trkpt lat="47.88001" lon="-4.18285">
        <ele>6</ele>
        <time>2023-11-25T16:55:21.341Z</time>
      </trkpt>
      <trkpt lat="47.87972" lon="-4.18261">
        <ele>6</ele>
        <time>2023-11-25T16:55:17.113Z</time>
      </trkpt>
      <trkpt lat="47.87948" lon="-4.1824">
        <ele>6</ele>
        <time>2023-11-25T16:55:12.892Z</time>
      </trkpt>
      <trkpt lat="47.8795" lon="-4.18201">
        <ele>7</ele>
        <time>2023-11-25T16:55:08.677Z</time>
      </trkpt>
      <trkpt lat="47.8798" lon="-4.18182">
        <ele>8</ele>
        <time>2023-11-25T16:55:04.467Z</time>
      </trkpt>
      <trkpt lat="47.88001" lon="-4.18188">
        <ele>9</ele>
        <time>2023-11-25T16:55:00.263Z</time>
      </trkpt>
      <trkpt lat="47.88027" lon="-4.18196">
        <ele>9</ele>
        <time>2023-11-25T16:54:56.063Z</time>
      </trkpt>
      <trkpt lat="47.88058" lon="-4.1819">
        <ele>10</ele>
        <time>2023-11-25T16:54:51.869Z</time>
      </trkpt>
      <trkpt lat="47.88078" lon="-4.18192">
        <ele>10</ele>
        <time>2023-11-25T16:54:47.681Z</time>
      </trkpt>
      <trkpt lat="47.88109" lon="-4.18196">
        <ele>12</ele>
        <time>2023-11-25T16:54:43.497Z</time>
      </trkpt>
      <trkpt lat="47.88144" lon="-4.182">
        <ele>14</ele>
        <time>2023-11-25T16:54:39.319Z</time>
      </trkpt>
      <trkpt lat="47.88164" lon="-4.18174">
        <ele>14</ele>
        <time>2023-11-25T16:54:35.148Z</time>
      </trkpt>
      <trkpt lat="47.88172" lon="-4.18172">
        <ele>15</ele>
        <time>2023-11-25T16:54:30.983Z</time>
      </trkpt>
      <trkpt lat="47.88197" lon="-4.18165">
        <ele>16</ele>
        <time>2023-11-25T16:54:26.819Z</time>
      </trkpt>
      <trkpt lat="47.88185" lon="-4.18133">
        <ele>14</ele>
        <time>2023-11-25T16:54:22.660Z</time>
      </trkpt>
      <trkpt lat="47.88176" lon="-4.1808">
        <ele>12</ele>
        <time>2023-11-25T16:54:18.506Z</time>
      </trkpt>
      <trkpt lat="47.88172" lon="-4.18023">
        <ele>11</ele>
        <time>2023-11-25T16:54:14.360Z</time>
      </trkpt>
      <trkpt lat="47.8816" lon="-4.17924">
        <ele>8</ele>
        <time>2023-11-25T16:54:10.222Z</time>
      </trkpt>
      <trkpt lat="47.88147" lon="-4.17864">
        <ele>6</ele>
        <time>2023-11-25T16:54:06.097Z</time>
      </trkpt>
      <trkpt lat="47.88132" lon="-4.1782">
        <ele>5</ele>
        <time>2023-11-25T16:54:01.981Z</time>
      </trkpt>
      <trkpt lat="47.88114" lon="-4.17787">
        <ele>4</ele>
        <time>2023-11-25T16:53:57.871Z</time>
      </trkpt>
      <trkpt lat="47.88075" lon="-4.17726">
        <ele>3</ele>
        <time>2023-11-25T16:53:53.767Z</time>
      </trkpt>
      <trkpt lat="47.8803" lon="-4.17661">
        <ele>5</ele>
        <time>2023-11-25T16:53:49.674Z</time>
      </trkpt>
      <trkpt lat="47.8799" lon="-4.17594">
        <ele>7</ele>
        <time>2023-11-25T16:53:45.594Z</time>
      </trkpt>
      <trkpt lat="47.87952" lon="-4.17538">
        <ele>10</ele>
        <time>2023-11-25T16:53:41.526Z</time>
      </trkpt>
      <trkpt lat="47.8791" lon="-4.17475">
        <ele>14</ele>
        <time>2023-11-25T16:53:37.469Z</time>
      </trkpt>
      <trkpt lat="47.87894" lon="-4.17433">
        <ele>15</ele>
        <time>2023-11-25T16:53:33.424Z</time>
      </trkpt>
      <trkpt lat="47.87875" lon="-4.17352">
        <ele>17</ele>
        <time>2023-11-25T16:53:29.385Z</time>
      </trkpt>
      <trkpt lat="47.87858" lon="-4.17265">
        <ele>17</ele>
        <time>2023-11-25T16:53:25.358Z</time>
      </trkpt>
      <trkpt lat="47.8783" lon="-4.17129">
        <ele>17</ele>
        <time>2023-11-25T16:53:21.343Z</time>
      </trkpt>
      <trkpt lat="47.87807" lon="-4.17028">
        <ele>15</ele>
        <time>2023-11-25T16:53:17.347Z</time>
      </trkpt>
      <trkpt lat="47.87788" lon="-4.16934">
        <ele>12</ele>
        <time>2023-11-25T16:53:13.365Z</time>
      </trkpt>
      <trkpt lat="47.87789" lon="-4.16828">
        <ele>14</ele>
        <time>2023-11-25T16:53:09.397Z</time>
      </trkpt>
      <trkpt lat="47.87781" lon="-4.16722">
        <ele>16</ele>
        <time>2023-11-25T16:53:05.443Z</time>
      </trkpt>
      <trkpt lat="47.87768" lon="-4.16703">
        <ele>16</ele>
        <time>2023-11-25T16:53:01.503Z</time>
      </trkpt>
      <trkpt lat="47.87737" lon="-4.16668">
        <ele>17</ele>
        <time>2023-11-25T16:52:57.567Z</time>
      </trkpt>
      <trkpt lat="47.87734" lon="-4.16657">
        <ele>17</ele>
        <time>2023-11-25T16:52:53.639Z</time>
      </trkpt>
      <trkpt lat="47.87737" lon="-4.16622">
        <ele>17</ele>
        <time>2023-11-25T16:52:49.712Z</time>
      </trkpt>
      <trkpt lat="47.87658" lon="-4.16596">
        <ele>16</ele>
        <time>2023-11-25T16:52:45.790Z</time>
      </trkpt>
      <trkpt lat="47.87592" lon="-4.16576">
        <ele>11</ele>
        <time>2023-11-25T16:52:41.884Z</time>
      </trkpt>
      <trkpt lat="47.87532" lon="-4.16559">
        <ele>5</ele>
        <time>2023-11-25T16:52:37.992Z</time>
      </trkpt>
      <trkpt lat="47.87474" lon="-4.16538">
        <ele>7</ele>
        <time>2023-11-25T16:52:34.112Z</time>
      </trkpt>
      <trkpt lat="47.87412" lon="-4.16517">
        <ele>8</ele>
        <time>2023-11-25T16:52:30.244Z</time>
      </trkpt>
      <trkpt lat="47.8735" lon="-4.16501">
        <ele>10</ele>
        <time>2023-11-25T16:52:26.389Z</time>
      </trkpt>
      <trkpt lat="47.87348" lon="-4.16526">
        <ele>9</ele>
        <time>2023-11-25T16:52:22.546Z</time>
      </trkpt>
      <trkpt lat="47.87338" lon="-4.16538">
        <ele>9</ele>
        <time>2023-11-25T16:52:18.706Z</time>
      </trkpt>
      <trkpt lat="47.87321" lon="-4.16551">
        <ele>10</ele>
        <time>2023-11-25T16:52:14.869Z</time>
      </trkpt>
      <trkpt lat="47.8728" lon="-4.16549">
        <ele>11</ele>
        <time>2023-11-25T16:52:11.036Z</time>
      </trkpt>
      <trkpt lat="47.87243" lon="-4.16543">
        <ele>11</ele>
        <time>2023-11-25T16:52:07.211Z</time>
      </trkpt>
      <trkpt lat="47.87203" lon="-4.16547">
        <ele>10</ele>
        <time>2023-11-25T16:52:03.393Z</time>
      </trkpt>
      <trkpt lat="47.87166" lon="-4.16552">
        <ele>10</ele>
        <time>2023-11-25T16:51:59.583Z</time>
      </trkpt>
      <trkpt lat="47.87119" lon="-4.16563">
        <ele>9</ele>
        <time>2023-11-25T16:51:55.781Z</time>
      </trkpt>
      <trkpt lat="47.87053" lon="-4.16572">
        <ele>9</ele>
        <time>2023-11-25T16:51:51.988Z</time>
      </trkpt>
      <trkpt lat="47.86989" lon="-4.16584">
        <ele>9</ele>
        <time>2023-11-25T16:51:48.209Z</time>
      </trkpt>
      <trkpt lat="47.86946" lon="-4.16584">
        <ele>8</ele>
        <time>2023-11-25T16:51:44.443Z</time>
      </trkpt>
      <trkpt lat="47.86891" lon="-4.16582">
        <ele>8</ele>
        <time>2023-11-25T16:51:40.685Z</time>
      </trkpt>
      <trkpt lat="47.86854" lon="-4.16579">
        <ele>7</ele>
        <time>2023-11-25T16:51:36.938Z</time>
      </trkpt>
      <trkpt lat="47.868" lon="-4.16552">
        <ele>6</ele>
        <time>2023-11-25T16:51:33.199Z</time>
      </trkpt>
      <trkpt lat="47.86758" lon="-4.16519">
        <ele>6</ele>
        <time>2023-11-25T16:51:29.471Z</time>
      </trkpt>
      <trkpt lat="47.86695" lon="-4.16456">
        <ele>5</ele>
        <time>2023-11-25T16:51:25.753Z</time>
      </trkpt>
      <trkpt lat="47.86618" lon="-4.16374">
        <ele>4</ele>
        <time>2023-11-25T16:51:22.050Z</time>
      </trkpt>
      <trkpt lat="47.86608" lon="-4.16431">
        <ele>5</ele>
        <time>2023-11-25T16:51:18.366Z</time>
      </trkpt>
      <trkpt lat="47.86597" lon="-4.16502">
        <ele>6</ele>
        <time>2023-11-25T16:51:14.690Z</time>
      </trkpt>
      <trkpt lat="47.86581" lon="-4.16567">
        <ele>6</ele>
        <time>2023-11-25T16:51:11.024Z</time>
      </trkpt>
      <trkpt lat="47.86573" lon="-4.16627">
        <ele>6</ele>
        <time>2023-11-25T16:51:07.367Z</time>
      </trkpt>
      <trkpt lat="47.86587" lon="-4.16655">
        <ele>7</ele>
        <time>2023-11-25T16:51:03.718Z</time>
      </trkpt>
      <trkpt lat="47.86584" lon="-4.16712">
        <ele>6</ele>
        <time>2023-11-25T16:51:00.074Z</time>
      </trkpt>
      <trkpt lat="47.86575" lon="-4.16769">
        <ele>6</ele>
        <time>2023-11-25T16:50:56.438Z</time>
      </trkpt>
      <trkpt lat="47.86559" lon="-4.16772">
        <ele>6</ele>
        <time>2023-11-25T16:50:52.809Z</time>
      </trkpt>
      <trkpt lat="47.86513" lon="-4.16768">
        <ele>6</ele>
        <time>2023-11-25T16:50:49.184Z</time>
      </trkpt>
      <trkpt lat="47.86461" lon="-4.16765">
        <ele>6</ele>
        <time>2023-11-25T16:50:45.568Z</time>
      </trkpt>
      <trkpt lat="47.86441" lon="-4.16759">
        <ele>6</ele>
        <time>2023-11-25T16:50:41.962Z</time>
      </trkpt>
      <trkpt lat="47.86387" lon="-4.16738">
        <ele>5</ele>
        <time>2023-11-25T16:50:38.360Z</time>
      </trkpt>
      <trkpt lat="47.86366" lon="-4.1676">
        <ele>5</ele>
        <time>2023-11-25T16:50:34.770Z</time>
      </trkpt>
      <trkpt lat="47.86339" lon="-4.16787">
        <ele>5</ele>
        <time>2023-11-25T16:50:31.185Z</time>
      </trkpt>
      <trkpt lat="47.86306" lon="-4.16795">
        <ele>6</ele>
        <time>2023-11-25T16:50:27.606Z</time>
      </trkpt>
      <trkpt lat="47.86271" lon="-4.16799">
        <ele>6</ele>
        <time>2023-11-25T16:50:24.034Z</time>
      </trkpt>
      <trkpt lat="47.86211" lon="-4.16791">
        <ele>5</ele>
        <time>2023-11-25T16:50:20.469Z</time>
      </trkpt>
      <trkpt lat="47.86175" lon="-4.16782">
        <ele>5</ele>
        <time>2023-11-25T16:50:16.916Z</time>
      </trkpt>
      <trkpt lat="47.8614" lon="-4.16752">
        <ele>4</ele>
        <time>2023-11-25T16:50:13.370Z</time>
      </trkpt>
      <trkpt lat="47.86122" lon="-4.16695">
        <ele>2</ele>
        <time>2023-11-25T16:50:09.833Z</time>
      </trkpt>
      <trkpt lat="47.86142" lon="-4.16666">
        <ele>1</ele>
        <time>2023-11-25T16:50:06.304Z</time>
      </trkpt>
      <trkpt lat="47.86112" lon="-4.16618">
        <ele>3</ele>
        <time>2023-11-25T16:50:02.781Z</time>
      </trkpt>
      <trkpt lat="47.8609" lon="-4.16574">
        <ele>2.5</ele>
        <time>2023-11-25T16:49:59.266Z</time>
      </trkpt>
      <trkpt lat="47.86054" lon="-4.16494">
        <ele>2.8</ele>
        <time>2023-11-25T16:49:55.759Z</time>
      </trkpt>
      <trkpt lat="47.86019" lon="-4.16421">
        <ele>3</ele>
        <time>2023-11-25T16:49:52.265Z</time>
      </trkpt>
      <trkpt lat="47.85998" lon="-4.16406">
        <ele>3</ele>
        <time>2023-11-25T16:49:48.783Z</time>
      </trkpt>
      <trkpt lat="47.85984" lon="-4.1642">
        <ele>3.1</ele>
        <time>2023-11-25T16:49:45.306Z</time>
      </trkpt>
      <trkpt lat="47.85979" lon="-4.16449">
        <ele>1</ele>
        <time>2023-11-25T16:49:41.832Z</time>
      </trkpt>
      <trkpt lat="47.85961" lon="-4.16471">
        <ele>1</ele>
        <time>2023-11-25T16:49:38.362Z</time>
      </trkpt>
      <trkpt lat="47.85927" lon="-4.16492">
        <ele>1</ele>
        <time>2023-11-25T16:49:34.896Z</time>
      </trkpt>
      <trkpt lat="47.85897" lon="-4.16515">
        <ele>1</ele>
        <time>2023-11-25T16:49:31.438Z</time>
      </trkpt>
      <trkpt lat="47.85849" lon="-4.16519">
        <ele>2.7</ele>
        <time>2023-11-25T16:49:27.987Z</time>
      </trkpt>
      <trkpt lat="47.85792" lon="-4.16529">
        <ele>1</ele>
        <time>2023-11-25T16:49:24.545Z</time>
      </trkpt>
      <trkpt lat="47.85735" lon="-4.16537">
        <ele>2.3</ele>
        <time>2023-11-25T16:49:21.115Z</time>
      </trkpt>
      <trkpt lat="47.8571" lon="-4.16565">
        <ele>3.4</ele>
        <time>2023-11-25T16:49:17.696Z</time>
      </trkpt>
      <trkpt lat="47.85687" lon="-4.16608">
        <ele>1</ele>
        <time>2023-11-25T16:49:14.284Z</time>
      </trkpt>
      <trkpt lat="47.85676" lon="-4.16628">
        <ele>1</ele>
        <time>2023-11-25T16:49:10.879Z</time>
      </trkpt>
      <trkpt lat="47.85607" lon="-4.16611">
        <ele>3.71</ele>
        <time>2023-11-25T16:49:07.477Z</time>
      </trkpt>
      <trkpt lat="47.85535" lon="-4.16591">
        <ele>2.3</ele>
        <time>2023-11-25T16:49:04.089Z</time>
      </trkpt>
      <trkpt lat="47.85428" lon="-4.16569">
        <ele>2</ele>
        <time>2023-11-25T16:49:00.716Z</time>
      </trkpt>
      <trkpt lat="47.85351" lon="-4.1655">
        <ele>1.8</ele>
        <time>2023-11-25T16:48:57.365Z</time>
      </trkpt>
      <trkpt lat="47.85281" lon="-4.16534">
        <ele>1.7</ele>
        <time>2023-11-25T16:48:54.029Z</time>
      </trkpt>
      <trkpt lat="47.85202" lon="-4.16519">
        <ele>3.9</ele>
        <time>2023-11-25T16:48:50.707Z</time>
      </trkpt>
      <trkpt lat="47.85116" lon="-4.1645">
        <ele>1</ele>
        <time>2023-11-25T16:48:47.401Z</time>
      </trkpt>
      <trkpt lat="47.85103" lon="-4.16511">
        <ele>1</ele>
        <time>2023-11-25T16:48:44.115Z</time>
      </trkpt>
      <trkpt lat="47.85084" lon="-4.16552">
        <ele>1</ele>
        <time>2023-11-25T16:48:40.837Z</time>
      </trkpt>
      <trkpt lat="47.85066" lon="-4.16572">
        <ele>1</ele>
        <time>2023-11-25T16:48:37.566Z</time>
      </trkpt>
      <trkpt lat="47.85081" lon="-4.16615">
        <ele>1</ele>
        <time>2023-11-25T16:48:34.300Z</time>
      </trkpt>
      <trkpt lat="47.8507" lon="-4.16659">
        <ele>1</ele>
        <time>2023-11-25T16:48:31.040Z</time>
      </trkpt>
      <trkpt lat="47.85047" lon="-4.16695">
        <ele>1</ele>
        <time>2023-11-25T16:48:27.787Z</time>
      </trkpt>
      <trkpt lat="47.85029" lon="-4.16723">
        <ele>1</ele>
        <time>2023-11-25T16:48:24.540Z</time>
      </trkpt>
      <trkpt lat="47.84999" lon="-4.16761">
        <ele>1</ele>
        <time>2023-11-25T16:48:21.299Z</time>
      </trkpt>
      <trkpt lat="47.84962" lon="-4.16793">
        <ele>1</ele>
        <time>2023-11-25T16:48:18.065Z</time>
      </trkpt>
      <trkpt lat="47.84924" lon="-4.16817">
        <ele>1</ele>
        <time>2023-11-25T16:48:14.840Z</time>
      </trkpt>
      <trkpt lat="47.849" lon="-4.16816">
        <ele>1</ele>
        <time>2023-11-25T16:48:11.623Z</time>
      </trkpt>
      <trkpt lat="47.84876" lon="-4.16769">
        <ele>1</ele>
        <time>2023-11-25T16:48:08.411Z</time>
      </trkpt>
      <trkpt lat="47.84841" lon="-4.1671">
        <ele>1</ele>
        <time>2023-11-25T16:48:05.207Z</time>
      </trkpt>
      <trkpt lat="47.8482" lon="-4.16736">
        <ele>1</ele>
        <time>2023-11-25T16:48:02.014Z</time>
      </trkpt>
      <trkpt lat="47.84783" lon="-4.1677">
        <ele>1</ele>
        <time>2023-11-25T16:47:58.826Z</time>
      </trkpt>
      <trkpt lat="47.84753" lon="-4.16801">
        <ele>1</ele>
        <time>2023-11-25T16:47:55.647Z</time>
      </trkpt>
      <trkpt lat="47.84741" lon="-4.16815">
        <ele>1</ele>
        <time>2023-11-25T16:47:52.475Z</time>
      </trkpt>
      <trkpt lat="47.8468" lon="-4.16846">
        <ele>1</ele>
        <time>2023-11-25T16:47:49.306Z</time>
      </trkpt>
      <trkpt lat="47.84642" lon="-4.16858">
        <ele>1</ele>
        <time>2023-11-25T16:47:46.150Z</time>
      </trkpt>
      <trkpt lat="47.84595" lon="-4.16864">
        <ele>1</ele>
        <time>2023-11-25T16:47:43.002Z</time>
      </trkpt>
      <trkpt lat="47.84554" lon="-4.16862">
        <ele>1</ele>
        <time>2023-11-25T16:47:39.863Z</time>
      </trkpt>
      <trkpt lat="47.84513" lon="-4.16837">
        <ele>2</ele>
        <time>2023-11-25T16:47:36.732Z</time>
      </trkpt>
      <trkpt lat="47.84467" lon="-4.16806">
        <ele>2</ele>
        <time>2023-11-25T16:47:33.610Z</time>
      </trkpt>
      <trkpt lat="47.84392" lon="-4.16742">
        <ele>1</ele>
        <time>2023-11-25T16:47:30.498Z</time>
      </trkpt>
      <trkpt lat="47.84358" lon="-4.16726">
        <ele>1</ele>
        <time>2023-11-25T16:47:27.404Z</time>
      </trkpt>
      <trkpt lat="47.84313" lon="-4.16725">
        <ele>2</ele>
        <time>2023-11-25T16:47:24.317Z</time>
      </trkpt>
      <trkpt lat="47.84318" lon="-4.16672">
        <ele>1</ele>
        <time>2023-11-25T16:47:21.239Z</time>
      </trkpt>
      <trkpt lat="47.84283" lon="-4.16683">
        <ele>2</ele>
        <time>2023-11-25T16:47:18.168Z</time>
      </trkpt>
      <trkpt lat="47.84251" lon="-4.16712">
        <ele>1</ele>
        <time>2023-11-25T16:47:15.104Z</time>
      </trkpt>
      <trkpt lat="47.84218" lon="-4.16749">
        <ele>2</ele>
        <time>2023-11-25T16:47:12.048Z</time>
      </trkpt>
      <trkpt lat="47.84182" lon="-4.16771">
        <ele>2</ele>
        <time>2023-11-25T16:47:09.000Z</time>
      </trkpt>
      <trkpt lat="47.84127" lon="-4.16808">
        <ele>2</ele>
        <time>2023-11-25T16:47:05.960Z</time>
      </trkpt>
      <trkpt lat="47.84083" lon="-4.16831">
        <ele>2</ele>
        <time>2023-11-25T16:47:02.932Z</time>
      </trkpt>
      <trkpt lat="47.84044" lon="-4.16833">
        <ele>1</ele>
        <time>2023-11-25T16:46:59.913Z</time>
      </trkpt>
      <trkpt lat="47.83995" lon="-4.16854">
        <ele>1</ele>
        <time>2023-11-25T16:46:56.902Z</time>
      </trkpt>
      <trkpt lat="47.8399" lon="-4.16903">
        <ele>2</ele>
        <time>2023-11-25T16:46:53.901Z</time>
      </trkpt>
      <trkpt lat="47.84" lon="-4.16904">
        <ele>2</ele>
        <time>2023-11-25T16:46:50.907Z</time>
      </trkpt>
      <trkpt lat="47.83994" lon="-4.16954">
        <ele>2</ele>
        <time>2023-11-25T16:46:47.915Z</time>
      </trkpt>
      <trkpt lat="47.8401" lon="-4.16951">
        <ele>3</ele>
        <time>2023-11-25T16:46:44.930Z</time>
      </trkpt>
      <trkpt lat="47.84028" lon="-4.16948">
        <ele>3</ele>
        <time>2023-11-25T16:46:41.948Z</time>
      </trkpt>
      <trkpt lat="47.84071" lon="-4.16953">
        <ele>2</ele>
        <time>2023-11-25T16:46:38.970Z</time>
      </trkpt>
      <trkpt lat="47.84106" lon="-4.16969">
        <ele>1</ele>
        <time>2023-11-25T16:46:36.000Z</time>
      </trkpt>
      <trkpt lat="47.84107" lon="-4.17035">
        <ele>1.7</ele>
        <time>2023-11-25T16:46:33.038Z</time>
      </trkpt>
      <trkpt lat="47.84108" lon="-4.17095">
        <time>2023-11-25T16:46:30.085Z</time>
      </trkpt>
      <trkpt lat="47.84116" lon="-4.17136">
        <time>2023-11-25T16:46:27.140Z</time>
      </trkpt>
      <trkpt lat="47.83808" lon="-4.17491">
        <ele>1</ele>
        <time>2023-11-25T16:46:24.200Z</time>
      </trkpt>
      <trkpt lat="47.83772" lon="-4.17459">
        <ele>3.5</ele>
        <time>2023-11-25T16:46:21.338Z</time>
      </trkpt>
      <trkpt lat="47.83731" lon="-4.17541">
        <ele>4.8</ele>
        <time>2023-11-25T16:46:18.485Z</time>
      </trkpt>
      <trkpt lat="47.83693" lon="-4.17614">
        <ele>4.9</ele>
        <time>2023-11-25T16:46:15.646Z</time>
      </trkpt>
      <trkpt lat="47.8365" lon="-4.17652">
        <ele>1</ele>
        <time>2023-11-25T16:46:12.819Z</time>
      </trkpt>
      <trkpt lat="47.83604" lon="-4.17698">
        <ele>2</ele>
        <time>2023-11-25T16:46:10.002Z</time>
      </trkpt>
      <trkpt lat="47.83575" lon="-4.17696">
        <ele>3</ele>
        <time>2023-11-25T16:46:07.196Z</time>
      </trkpt>
      <trkpt lat="47.83538" lon="-4.17648">
        <ele>2</ele>
        <time>2023-11-25T16:46:04.396Z</time>
      </trkpt>
      <trkpt lat="47.83511" lon="-4.17601">
        <ele>2</ele>
        <time>2023-11-25T16:46:01.606Z</time>
      </trkpt>
      <trkpt lat="47.83475" lon="-4.1754">
        <ele>2</ele>
        <time>2023-11-25T16:45:58.824Z</time>
      </trkpt>
      <trkpt lat="47.83443" lon="-4.17477">
        <ele>2</ele>
        <time>2023-11-25T16:45:56.053Z</time>
      </trkpt>
      <trkpt lat="47.83414" lon="-4.17422">
        <ele>2</ele>
        <time>2023-11-25T16:45:53.293Z</time>
      </trkpt>
      <trkpt lat="47.83381" lon="-4.17347">
        <ele>2</ele>
        <time>2023-11-25T16:45:50.542Z</time>
      </trkpt>
      <trkpt lat="47.83365" lon="-4.17332">
        <ele>3</ele>
        <time>2023-11-25T16:45:47.803Z</time>
      </trkpt>
      <trkpt lat="47.83335" lon="-4.1732">
        <ele>4</ele>
        <time>2023-11-25T16:45:45.068Z</time>
      </trkpt>
      <trkpt lat="47.83312" lon="-4.17423">
        <ele>4</ele>
        <time>2023-11-25T16:45:42.339Z</time>
      </trkpt>
      <trkpt lat="47.83285" lon="-4.17517">
        <ele>4</ele>
        <time>2023-11-25T16:45:39.625Z</time>
      </trkpt>
      <trkpt lat="47.83256" lon="-4.17632">
        <ele>5</ele>
        <time>2023-11-25T16:45:36.924Z</time>
      </trkpt>
      <trkpt lat="47.83239" lon="-4.17699">
        <ele>6</ele>
        <time>2023-11-25T16:45:34.240Z</time>
      </trkpt>
      <trkpt lat="47.83226" lon="-4.17806">
        <ele>6</ele>
        <time>2023-11-25T16:45:31.566Z</time>
      </trkpt>
      <trkpt lat="47.8323" lon="-4.17857">
        <ele>5</ele>
        <time>2023-11-25T16:45:28.906Z</time>
      </trkpt>
      <trkpt lat="47.83239" lon="-4.17936">
        <ele>8</ele>
        <time>2023-11-25T16:45:26.253Z</time>
      </trkpt>
      <trkpt lat="47.83229" lon="-4.17954">
        <ele>9</ele>
        <time>2023-11-25T16:45:23.611Z</time>
      </trkpt>
      <trkpt lat="47.83229" lon="-4.17972">
        <ele>9</ele>
        <time>2023-11-25T16:45:20.972Z</time>
      </trkpt>
      <trkpt lat="47.83248" lon="-4.17974">
        <ele>9</ele>
        <time>2023-11-25T16:45:18.336Z</time>
      </trkpt>
      <trkpt lat="47.83255" lon="-4.17945">
        <ele>9</ele>
        <time>2023-11-25T16:45:15.703Z</time>
      </trkpt>
      <trkpt lat="47.83296" lon="-4.17947">
        <ele>8</ele>
        <time>2023-11-25T16:45:13.075Z</time>
      </trkpt>
      <trkpt lat="47.83305" lon="-4.1796">
        <ele>8</ele>
        <time>2023-11-25T16:45:10.455Z</time>
      </trkpt>
      <trkpt lat="47.83329" lon="-4.18021">
        <ele>9</ele>
        <time>2023-11-25T16:45:07.837Z</time>
      </trkpt>
      <trkpt lat="47.83356" lon="-4.18102">
        <ele>9</ele>
        <time>2023-11-25T16:45:05.229Z</time>
      </trkpt>
      <trkpt lat="47.83375" lon="-4.18166">
        <ele>8</ele>
        <time>2023-11-25T16:45:02.633Z</time>
      </trkpt>
      <trkpt lat="47.83424" lon="-4.18212">
        <ele>5</ele>
        <time>2023-11-25T16:45:00.046Z</time>
      </trkpt>
      <trkpt lat="47.83469" lon="-4.1825">
        <ele>4</ele>
        <time>2023-11-25T16:44:57.471Z</time>
      </trkpt>
      <trkpt lat="47.83508" lon="-4.18291">
        <ele>4</ele>
        <time>2023-11-25T16:44:54.907Z</time>
      </trkpt>
      <trkpt lat="47.8354" lon="-4.1833">
        <ele>4</ele>
        <time>2023-11-25T16:44:52.352Z</time>
      </trkpt>
      <trkpt lat="47.83574" lon="-4.18371">
        <ele>6</ele>
        <time>2023-11-25T16:44:49.805Z</time>
      </trkpt>
      <trkpt lat="47.83609" lon="-4.18419">
        <ele>7</ele>
        <time>2023-11-25T16:44:47.267Z</time>
      </trkpt>
      <trkpt lat="47.83627" lon="-4.18435">
        <ele>8</ele>
        <time>2023-11-25T16:44:44.739Z</time>
      </trkpt>
      <trkpt lat="47.83669" lon="-4.18462">
        <ele>9</ele>
        <time>2023-11-25T16:44:42.215Z</time>
      </trkpt>
      <trkpt lat="47.8371" lon="-4.18485">
        <ele>10</ele>
        <time>2023-11-25T16:44:39.700Z</time>
      </trkpt>
      <trkpt lat="47.83755" lon="-4.18513">
        <ele>9</ele>
        <time>2023-11-25T16:44:37.194Z</time>
      </trkpt>
      <trkpt lat="47.83792" lon="-4.18541">
        <ele>6</ele>
        <time>2023-11-25T16:44:34.697Z</time>
      </trkpt>
      <trkpt lat="47.83849" lon="-4.18551">
        <ele>2</ele>
        <time>2023-11-25T16:44:32.209Z</time>
      </trkpt>
      <trkpt lat="47.83853" lon="-4.18527">
        <ele>1</ele>
        <time>2023-11-25T16:44:29.732Z</time>
      </trkpt>
      <trkpt lat="47.83908" lon="-4.18507">
        <ele>5</ele>
        <time>2023-11-25T16:44:27.259Z</time>
      </trkpt>
      <trkpt lat="47.83933" lon="-4.18547">
        <ele>6</ele>
        <time>2023-11-25T16:44:24.797Z</time>
      </trkpt>
      <trkpt lat="47.83953" lon="-4.18576">
        <ele>7</ele>
        <time>2023-11-25T16:44:22.343Z</time>
      </trkpt>
      <trkpt lat="47.83974" lon="-4.18597">
        <ele>8</ele>
        <time>2023-11-25T16:44:19.894Z</time>
      </trkpt>
      <trkpt lat="47.84012" lon="-4.18613">
        <ele>9</ele>
        <time>2023-11-25T16:44:17.450Z</time>
      </trkpt>
      <trkpt lat="47.84041" lon="-4.18618">
        <ele>10</ele>
        <time>2023-11-25T16:44:15.014Z</time>
      </trkpt>
      <trkpt lat="47.84082" lon="-4.18624">
        <ele>9</ele>
        <time>2023-11-25T16:44:12.584Z</time>
      </trkpt>
      <trkpt lat="47.84132" lon="-4.1863">
        <ele>7</ele>
        <time>2023-11-25T16:44:10.162Z</time>
      </trkpt>
      <trkpt lat="47.84158" lon="-4.18594">
        <ele>6</ele>
        <time>2023-11-25T16:44:07.750Z</time>
      </trkpt>
      <trkpt lat="47.84183" lon="-4.18539">
        <ele>6</ele>
        <time>2023-11-25T16:44:05.345Z</time>
      </trkpt>
      <trkpt lat="47.84197" lon="-4.1848">
        <ele>5</ele>
        <time>2023-11-25T16:44:02.949Z</time>
      </trkpt>
      <trkpt lat="47.84219" lon="-4.18436">
        <ele>3</ele>
        <time>2023-11-25T16:44:00.562Z</time>
      </trkpt>
      <trkpt lat="47.84235" lon="-4.18433">
        <ele>2</ele>
        <time>2023-11-25T16:43:58.182Z</time>
      </trkpt>
      <trkpt lat="47.84272" lon="-4.18451">
        <ele>4.2</ele>
        <time>2023-11-25T16:43:55.805Z</time>
      </trkpt>
      <trkpt lat="47.84292" lon="-4.18452">
        <ele>3.7</ele>
        <time>2023-11-25T16:43:53.436Z</time>
      </trkpt>
      <trkpt lat="47.84293" lon="-4.18509">
        <ele>1</ele>
        <time>2023-11-25T16:43:51.071Z</time>
      </trkpt>
      <trkpt lat="47.84312" lon="-4.18543">
        <ele>1</ele>
        <time>2023-11-25T16:43:48.714Z</time>
      </trkpt>
      <trkpt lat="47.84342" lon="-4.18579">
        <ele>1</ele>
        <time>2023-11-25T16:43:46.363Z</time>
      </trkpt>
      <trkpt lat="47.84368" lon="-4.18612">
        <ele>1</ele>
        <time>2023-11-25T16:43:44.019Z</time>
      </trkpt>
      <trkpt lat="47.84392" lon="-4.18613">
        <ele>1</ele>
        <time>2023-11-25T16:43:41.682Z</time>
      </trkpt>
      <trkpt lat="47.84427" lon="-4.18618">
        <ele>1</ele>
        <time>2023-11-25T16:43:39.350Z</time>
      </trkpt>
      <trkpt lat="47.84446" lon="-4.18635">
        <ele>1</ele>
        <time>2023-11-25T16:43:37.025Z</time>
      </trkpt>
      <trkpt lat="47.84471" lon="-4.18667">
        <ele>4</ele>
        <time>2023-11-25T16:43:34.704Z</time>
      </trkpt>
      <trkpt lat="47.84491" lon="-4.18709">
        <ele>3.3</ele>
        <time>2023-11-25T16:43:32.390Z</time>
      </trkpt>
      <trkpt lat="47.84481" lon="-4.18743">
        <ele>1</ele>
        <time>2023-11-25T16:43:30.083Z</time>
      </trkpt>
      <trkpt lat="47.84479" lon="-4.18776">
        <ele>1</ele>
        <time>2023-11-25T16:43:27.781Z</time>
      </trkpt>
      <trkpt lat="47.84489" lon="-4.18833">
        <ele>1</ele>
        <time>2023-11-25T16:43:25.484Z</time>
      </trkpt>
      <trkpt lat="47.8448" lon="-4.18886">
        <ele>1</ele>
        <time>2023-11-25T16:43:23.195Z</time>
      </trkpt>
      <trkpt lat="47.84494" lon="-4.18906">
        <ele>2</ele>
        <time>2023-11-25T16:43:20.913Z</time>
      </trkpt>
      <trkpt lat="47.8451" lon="-4.18945">
        <ele>1</ele>
        <time>2023-11-25T16:43:18.635Z</time>
      </trkpt>
      <trkpt lat="47.84517" lon="-4.18996">
        <ele>1</ele>
        <time>2023-11-25T16:43:16.363Z</time>
      </trkpt>
      <trkpt lat="47.8455" lon="-4.19017">
        <ele>3.5</ele>
        <time>2023-11-25T16:43:14.098Z</time>
      </trkpt>
      <trkpt lat="47.8458" lon="-4.19037">
        <ele>3.4</ele>
        <time>2023-11-25T16:43:11.840Z</time>
      </trkpt>
      <trkpt lat="47.84611" lon="-4.19049">
        <ele>2.5</ele>
        <time>2023-11-25T16:43:09.589Z</time>
      </trkpt>
      <trkpt lat="47.84641" lon="-4.19055">
        <ele>3</ele>
        <time>2023-11-25T16:43:07.344Z</time>
      </trkpt>
      <trkpt lat="47.84657" lon="-4.19085">
        <ele>3.1</ele>
        <time>2023-11-25T16:43:05.105Z</time>
      </trkpt>
      <trkpt lat="47.8468" lon="-4.19095">
        <ele>2</ele>
        <time>2023-11-25T16:43:02.871Z</time>
      </trkpt>
      <trkpt lat="47.8469" lon="-4.19119">
        <ele>2</ele>
        <time>2023-11-25T16:43:00.642Z</time>
      </trkpt>
      <trkpt lat="47.84698" lon="-4.19154">
        <ele>2</ele>
        <time>2023-11-25T16:42:58.417Z</time>
      </trkpt>
      <trkpt lat="47.84706" lon="-4.19193">
        <ele>4</ele>
        <time>2023-11-25T16:42:56.197Z</time>
      </trkpt>
      <trkpt lat="47.84716" lon="-4.19186">
        <ele>5</ele>
        <time>2023-11-25T16:42:53.982Z</time>
      </trkpt>
      <trkpt lat="47.84748" lon="-4.19162">
        <ele>7</ele>
        <time>2023-11-25T16:42:51.770Z</time>
      </trkpt>
      <trkpt lat="47.8478" lon="-4.19144">
        <ele>8</ele>
        <time>2023-11-25T16:42:49.565Z</time>
      </trkpt>
      <trkpt lat="47.84816" lon="-4.19143">
        <ele>8</ele>
        <time>2023-11-25T16:42:47.367Z</time>
      </trkpt>
      <trkpt lat="47.84852" lon="-4.19173">
        <ele>9</ele>
        <time>2023-11-25T16:42:45.176Z</time>
      </trkpt>
      <trkpt lat="47.84859" lon="-4.19191">
        <ele>10</ele>
        <time>2023-11-25T16:42:42.993Z</time>
      </trkpt>
      <trkpt lat="47.84896" lon="-4.1924">
        <ele>10</ele>
        <time>2023-11-25T16:42:40.813Z</time>
      </trkpt>
      <trkpt lat="47.84942" lon="-4.19305">
        <ele>7</ele>
        <time>2023-11-25T16:42:38.643Z</time>
      </trkpt>
      <trkpt lat="47.84986" lon="-4.19364">
        <ele>6</ele>
        <time>2023-11-25T16:42:36.486Z</time>
      </trkpt>
      <trkpt lat="47.85014" lon="-4.19404">
        <ele>7</ele>
        <time>2023-11-25T16:42:34.340Z</time>
      </trkpt>
      <trkpt lat="47.8503" lon="-4.19438">
        <ele>8</ele>
        <time>2023-11-25T16:42:32.202Z</time>
      </trkpt>
      <trkpt lat="47.85069" lon="-4.19513">
        <ele>9</ele>
        <time>2023-11-25T16:42:30.070Z</time>
      </trkpt>
      <trkpt lat="47.85108" lon="-4.19582">
        <ele>8</ele>
        <time>2023-11-25T16:42:27.951Z</time>
      </trkpt>
      <trkpt lat="47.85149" lon="-4.19642">
        <ele>8</ele>
        <time>2023-11-25T16:42:25.844Z</time>
      </trkpt>
      <trkpt lat="47.85179" lon="-4.19678">
        <ele>9</ele>
        <time>2023-11-25T16:42:23.748Z</time>
      </trkpt>
      <trkpt lat="47.85222" lon="-4.19688">
        <ele>8</ele>
        <time>2023-11-25T16:42:21.660Z</time>
      </trkpt>
      <trkpt lat="47.85256" lon="-4.19692">
        <ele>6</ele>
        <time>2023-11-25T16:42:19.581Z</time>
      </trkpt>
      <trkpt lat="47.85288" lon="-4.19673">
        <ele>6</ele>
        <time>2023-11-25T16:42:17.509Z</time>
      </trkpt>
      <trkpt lat="47.85288" lon="-4.19627">
        <ele>7</ele>
        <time>2023-11-25T16:42:15.443Z</time>
      </trkpt>
      <trkpt lat="47.8529" lon="-4.1954">
        <ele>6</ele>
        <time>2023-11-25T16:42:13.384Z</time>
      </trkpt>
      <trkpt lat="47.85299" lon="-4.1948">
        <ele>5</ele>
        <time>2023-11-25T16:42:11.336Z</time>
      </trkpt>
      <trkpt lat="47.85313" lon="-4.19441">
        <ele>4</ele>
        <time>2023-11-25T16:42:09.297Z</time>
      </trkpt>
      <trkpt lat="47.85337" lon="-4.19397">
        <ele>2</ele>
        <time>2023-11-25T16:42:07.264Z</time>
      </trkpt>
      <trkpt lat="47.85362" lon="-4.19414">
        <ele>2</ele>
        <time>2023-11-25T16:42:05.238Z</time>
      </trkpt>
      <trkpt lat="47.8539" lon="-4.1941">
        <ele>1</ele>
        <time>2023-11-25T16:42:03.218Z</time>
      </trkpt>
      <trkpt lat="47.8542" lon="-4.19414">
        <ele>4.4</ele>
        <time>2023-11-25T16:42:01.203Z</time>
      </trkpt>
      <trkpt lat="47.85434" lon="-4.19444">
        <ele>4.1</ele>
        <time>2023-11-25T16:41:59.194Z</time>
      </trkpt>
      <trkpt lat="47.85451" lon="-4.19482">
        <ele>5.4</ele>
        <time>2023-11-25T16:41:57.190Z</time>
      </trkpt>
      <trkpt lat="47.85471" lon="-4.19481">
        <ele>4.3</ele>
        <time>2023-11-25T16:41:55.192Z</time>
      </trkpt>
      <trkpt lat="47.85489" lon="-4.19503">
        <ele>5</ele>
        <time>2023-11-25T16:41:53.198Z</time>
      </trkpt>
      <trkpt lat="47.85496" lon="-4.19526">
        <ele>1</ele>
        <time>2023-11-25T16:41:51.209Z</time>
      </trkpt>
      <trkpt lat="47.85536" lon="-4.19541">
        <ele>4.6</ele>
        <time>2023-11-25T16:41:49.223Z</time>
      </trkpt>
      <trkpt lat="47.85558" lon="-4.19552">
        <ele>5.3</ele>
        <time>2023-11-25T16:41:47.246Z</time>
      </trkpt>
      <trkpt lat="47.8559" lon="-4.19576">
        <ele>5.6</ele>
        <time>2023-11-25T16:41:45.273Z</time>
      </trkpt>
      <trkpt lat="47.85623" lon="-4.19582">
        <ele>4.5</ele>
        <time>2023-11-25T16:41:43.307Z</time>
      </trkpt>
      <trkpt lat="47.85649" lon="-4.196">
        <ele>5</ele>
        <time>2023-11-25T16:41:41.348Z</time>
      </trkpt>
      <trkpt lat="47.85673" lon="-4.19623">
        <ele>6</ele>
        <time>2023-11-25T16:41:39.395Z</time>
      </trkpt>
      <trkpt lat="47.85698" lon="-4.19621">
        <ele>4.4</ele>
        <time>2023-11-25T16:41:37.448Z</time>
      </trkpt>
      <trkpt lat="47.85685" lon="-4.19687">
        <ele>4.1</ele>
        <time>2023-11-25T16:41:35.506Z</time>
      </trkpt>
      <trkpt lat="47.8569" lon="-4.19724">
        <ele>3.8</ele>
        <time>2023-11-25T16:41:33.573Z</time>
      </trkpt>
      <trkpt lat="47.85683" lon="-4.19782">
        <ele>4.5</ele>
        <time>2023-11-25T16:41:31.645Z</time>
      </trkpt>
      <trkpt lat="47.85706" lon="-4.19822">
        <ele>1.8</ele>
        <time>2023-11-25T16:41:29.725Z</time>
      </trkpt>
      <trkpt lat="47.85735" lon="-4.19867">
        <ele>2.1</ele>
        <time>2023-11-25T16:41:27.812Z</time>
      </trkpt>
      <trkpt lat="47.8577" lon="-4.19895">
        <ele>3.5</ele>
        <time>2023-11-25T16:41:25.907Z</time>
      </trkpt>
      <trkpt lat="47.85811" lon="-4.19939">
        <ele>4.6</ele>
        <time>2023-11-25T16:41:24.010Z</time>
      </trkpt>
      <trkpt lat="47.85855" lon="-4.19964">
        <ele>4.7</ele>
        <time>2023-11-25T16:41:22.123Z</time>
      </trkpt>
      <trkpt lat="47.85901" lon="-4.19985">
        <ele>4</ele>
        <time>2023-11-25T16:41:20.246Z</time>
      </trkpt>
      <trkpt lat="47.85919" lon="-4.20022">
        <ele>1</ele>
        <time>2023-11-25T16:41:18.378Z</time>
      </trkpt>
      <trkpt lat="47.85956" lon="-4.20045">
        <ele>2.1</ele>
        <time>2023-11-25T16:41:16.517Z</time>
      </trkpt>
      <trkpt lat="47.85994" lon="-4.20077">
        <ele>3.6</ele>
        <time>2023-11-25T16:41:14.664Z</time>
      </trkpt>
      <trkpt lat="47.86007" lon="-4.20127">
        <ele>1</ele>
        <time>2023-11-25T16:41:12.819Z</time>
      </trkpt>
      <trkpt lat="47.86013" lon="-4.20185">
        <ele>1</ele>
        <time>2023-11-25T16:41:10.981Z</time>
      </trkpt>
      <trkpt lat="47.86015" lon="-4.20225">
        <ele>1</ele>
        <time>2023-11-25T16:41:09.151Z</time>
      </trkpt>
      <trkpt lat="47.86036" lon="-4.20263">
        <ele>7.2</ele>
        <time>2023-11-25T16:41:07.327Z</time>
      </trkpt>
      <trkpt lat="47.8605" lon="-4.20308">
        <ele>5.7</ele>
        <time>2023-11-25T16:41:05.509Z</time>
      </trkpt>
      <trkpt lat="47.86054" lon="-4.20351">
        <ele>1</ele>
        <time>2023-11-25T16:41:03.698Z</time>
      </trkpt>
      <trkpt lat="47.86063" lon="-4.20392">
        <ele>1</ele>
        <time>2023-11-25T16:41:01.893Z</time>
      </trkpt>
      <trkpt lat="47.86073" lon="-4.20434">
        <ele>1</ele>
        <time>2023-11-25T16:41:00.094Z</time>
      </trkpt>
      <trkpt lat="47.86085" lon="-4.20447">
        <ele>1</ele>
        <time>2023-11-25T16:40:58.301Z</time>
      </trkpt>
      <trkpt lat="47.86121" lon="-4.20475">
        <ele>1</ele>
        <time>2023-11-25T16:40:56.511Z</time>
      </trkpt>
      <trkpt lat="47.8615" lon="-4.20498">
        <ele>5.8</ele>
        <time>2023-11-25T16:40:54.729Z</time>
      </trkpt>
      <trkpt lat="47.86182" lon="-4.20539">
        <ele>5.2</ele>
        <time>2023-11-25T16:40:52.953Z</time>
      </trkpt>
      <trkpt lat="47.86198" lon="-4.20577">
        <ele>5.1</ele>
        <time>2023-11-25T16:40:51.186Z</time>
      </trkpt>
      <trkpt lat="47.86226" lon="-4.2058">
        <ele>1</ele>
        <time>2023-11-25T16:40:49.425Z</time>
      </trkpt>
      <trkpt lat="47.8626" lon="-4.20591">
        <ele>1</ele>
        <time>2023-11-25T16:40:47.669Z</time>
      </trkpt>
      <trkpt lat="47.86286" lon="-4.20596">
        <ele>1</ele>
        <time>2023-11-25T16:40:45.920Z</time>
      </trkpt>
      <trkpt lat="47.86298" lon="-4.20582">
        <ele>1</ele>
        <time>2023-11-25T16:40:44.177Z</time>
      </trkpt>
      <trkpt lat="47.86327" lon="-4.20582">
        <ele>1</ele>
        <time>2023-11-25T16:40:42.437Z</time>
      </trkpt>
      <trkpt lat="47.86353" lon="-4.20601">
        <ele>1</ele>
        <time>2023-11-25T16:40:40.702Z</time>
      </trkpt>
      <trkpt lat="47.8637" lon="-4.20633">
        <ele>1</ele>
        <time>2023-11-25T16:40:38.973Z</time>
      </trkpt>
      <trkpt lat="47.86392" lon="-4.20686">
        <ele>2</ele>
        <time>2023-11-25T16:40:37.250Z</time>
      </trkpt>
      <trkpt lat="47.86415" lon="-4.20704">
        <ele>1</ele>
        <time>2023-11-25T16:40:35.535Z</time>
      </trkpt>
      <trkpt lat="47.86452" lon="-4.20737">
        <ele>4.9</ele>
        <time>2023-11-25T16:40:33.825Z</time>
      </trkpt>
      <trkpt lat="47.86492" lon="-4.20772">
        <ele>1</ele>
        <time>2023-11-25T16:40:32.124Z</time>
      </trkpt>
      <trkpt lat="47.8653" lon="-4.20802">
        <ele>4.2</ele>
        <time>2023-11-25T16:40:30.432Z</time>
      </trkpt>
      <trkpt lat="47.86545" lon="-4.20836">
        <ele>1</ele>
        <time>2023-11-25T16:40:28.749Z</time>
      </trkpt>
      <trkpt lat="47.86571" lon="-4.20894">
        <ele>1</ele>
        <time>2023-11-25T16:40:27.071Z</time>
      </trkpt>
      <trkpt lat="47.866" lon="-4.20955">
        <ele>1</ele>
        <time>2023-11-25T16:40:25.403Z</time>
      </trkpt>
      <trkpt lat="47.86621" lon="-4.21004">
        <ele>1</ele>
        <time>2023-11-25T16:40:23.745Z</time>
      </trkpt>
      <trkpt lat="47.86643" lon="-4.21049">
        <ele>1</ele>
        <time>2023-11-25T16:40:22.095Z</time>
      </trkpt>
      <trkpt lat="47.86666" lon="-4.21107">
        <ele>4.8</ele>
        <time>2023-11-25T16:40:20.452Z</time>
      </trkpt>
      <trkpt lat="47.86671" lon="-4.21131">
        <ele>1</ele>
        <time>2023-11-25T16:40:18.818Z</time>
      </trkpt>
      <trkpt lat="47.86673" lon="-4.21165">
        <ele>1</ele>
        <time>2023-11-25T16:40:17.188Z</time>
      </trkpt>
      <trkpt lat="47.8667" lon="-4.21203">
        <ele>2</ele>
        <time>2023-11-25T16:40:15.562Z</time>
      </trkpt>
      <trkpt lat="47.86653" lon="-4.21262">
        <ele>2</ele>
        <time>2023-11-25T16:40:13.941Z</time>
      </trkpt>
      <trkpt lat="47.8664" lon="-4.2131">
        <ele>2</ele>
        <time>2023-11-25T16:40:12.329Z</time>
      </trkpt>
      <trkpt lat="47.86626" lon="-4.21357">
        <ele>3</ele>
        <time>2023-11-25T16:40:10.724Z</time>
      </trkpt>
      <trkpt lat="47.86609" lon="-4.21422">
        <ele>2</ele>
        <time>2023-11-25T16:40:09.126Z</time>
      </trkpt>
      <trkpt lat="47.86602" lon="-4.2145">
        <ele>1</ele>
        <time>2023-11-25T16:40:07.537Z</time>
      </trkpt>
      <trkpt lat="47.86599" lon="-4.21523">
        <ele>4.5</ele>
        <time>2023-11-25T16:40:05.952Z</time>
      </trkpt>
      <trkpt lat="47.86597" lon="-4.21592">
        <ele>1</ele>
        <time>2023-11-25T16:40:04.377Z</time>
      </trkpt>
      <trkpt lat="47.86606" lon="-4.21631">
        <ele>2</ele>
        <time>2023-11-25T16:40:02.811Z</time>
      </trkpt>
      <trkpt lat="47.86628" lon="-4.21684">
        <ele>1</ele>
        <time>2023-11-25T16:40:01.251Z</time>
      </trkpt>
      <trkpt lat="47.86645" lon="-4.21717">
        <ele>2</ele>
        <time>2023-11-25T16:39:59.699Z</time>
      </trkpt>
      <trkpt lat="47.86661" lon="-4.21744">
        <ele>2</ele>
        <time>2023-11-25T16:39:58.153Z</time>
      </trkpt>
      <trkpt lat="47.86689" lon="-4.21796">
        <ele>3</ele>
        <time>2023-11-25T16:39:56.612Z</time>
      </trkpt>
      <trkpt lat="47.86725" lon="-4.21866">
        <ele>4</ele>
        <time>2023-11-25T16:39:55.080Z</time>
      </trkpt>
      <trkpt lat="47.86729" lon="-4.21928">
        <ele>4</ele>
        <time>2023-11-25T16:39:53.560Z</time>
      </trkpt>
      <trkpt lat="47.86732" lon="-4.21974">
        <ele>4</ele>
        <time>2023-11-25T16:39:52.048Z</time>
      </trkpt>
      <trkpt lat="47.86731" lon="-4.22002">
        <ele>5</ele>
        <time>2023-11-25T16:39:50.542Z</time>
      </trkpt>
      <trkpt lat="47.86727" lon="-4.22057">
        <ele>5</ele>
        <time>2023-11-25T16:39:49.040Z</time>
      </trkpt>
      <trkpt lat="47.86724" lon="-4.22095">
        <ele>5</ele>
        <time>2023-11-25T16:39:47.545Z</time>
      </trkpt>
      <trkpt lat="47.8672" lon="-4.2213">
        <ele>5</ele>
        <time>2023-11-25T16:39:46.056Z</time>
      </trkpt>
      <trkpt lat="47.86713" lon="-4.22186">
        <ele>4</ele>
        <time>2023-11-25T16:39:44.571Z</time>
      </trkpt>
      <trkpt lat="47.86706" lon="-4.22236">
        <ele>4</ele>
        <time>2023-11-25T16:39:43.094Z</time>
      </trkpt>
      <trkpt lat="47.86699" lon="-4.22282">
        <ele>3</ele>
        <time>2023-11-25T16:39:41.624Z</time>
      </trkpt>
      <trkpt lat="47.86692" lon="-4.22329">
        <ele>4</ele>
        <time>2023-11-25T16:39:40.160Z</time>
      </trkpt>
      <trkpt lat="47.86705" lon="-4.22336">
        <ele>3</ele>
        <time>2023-11-25T16:39:38.703Z</time>
      </trkpt>
      <trkpt lat="47.86717" lon="-4.22376">
        <ele>2</ele>
        <time>2023-11-25T16:39:37.249Z</time>
      </trkpt>
      <trkpt lat="47.8672" lon="-4.22401">
        <ele>2</ele>
        <time>2023-11-25T16:39:35.800Z</time>
      </trkpt>
      <trkpt lat="47.86726" lon="-4.22449">
        <ele>2</ele>
        <time>2023-11-25T16:39:34.355Z</time>
      </trkpt>
      <trkpt lat="47.86723" lon="-4.22497">
        <ele>3</ele>
        <time>2023-11-25T16:39:32.916Z</time>
      </trkpt>
      <trkpt lat="47.86721" lon="-4.22529">
        <ele>3</ele>
        <time>2023-11-25T16:39:31.484Z</time>
      </trkpt>
      <trkpt lat="47.86737" lon="-4.22551">
        <ele>2</ele>
        <time>2023-11-25T16:39:30.056Z</time>
      </trkpt>
      <trkpt lat="47.86736" lon="-4.22575">
        <ele>2</ele>
        <time>2023-11-25T16:39:28.633Z</time>
      </trkpt>
      <trkpt lat="47.86731" lon="-4.22592">
        <ele>3</ele>
        <time>2023-11-25T16:39:27.213Z</time>
      </trkpt>
      <trkpt lat="47.8671" lon="-4.22615">
        <ele>4</ele>
        <time>2023-11-25T16:39:25.795Z</time>
      </trkpt>
      <trkpt lat="47.86714" lon="-4.22634">
        <ele>4</ele>
        <time>2023-11-25T16:39:24.383Z</time>
      </trkpt>
      <trkpt lat="47.86726" lon="-4.22696">
        <ele>4</ele>
        <time>2023-11-25T16:39:22.973Z</time>
      </trkpt>
      <trkpt lat="47.8674" lon="-4.22761">
        <ele>3</ele>
        <time>2023-11-25T16:39:21.572Z</time>
      </trkpt>
      <trkpt lat="47.86747" lon="-4.22821">
        <ele>3</ele>
        <time>2023-11-25T16:39:20.180Z</time>
      </trkpt>
      <trkpt lat="47.86738" lon="-4.22858">
        <ele>3</ele>
        <time>2023-11-25T16:39:18.796Z</time>
      </trkpt>
      <trkpt lat="47.8671" lon="-4.22888">
        <ele>3</ele>
        <time>2023-11-25T16:39:17.418Z</time>
      </trkpt>
      <trkpt lat="47.86671" lon="-4.22908">
        <ele>4</ele>
        <time>2023-11-25T16:39:16.046Z</time>
      </trkpt>
      <trkpt lat="47.86634" lon="-4.22926">
        <ele>5</ele>
        <time>2023-11-25T16:39:14.683Z</time>
      </trkpt>
      <trkpt lat="47.86672" lon="-4.23039">
        <ele>5</ele>
        <time>2023-11-25T16:39:13.328Z</time>
      </trkpt>
      <trkpt lat="47.867" lon="-4.23118">
        <ele>4</ele>
        <time>2023-11-25T16:39:11.990Z</time>
      </trkpt>
      <trkpt lat="47.86763" lon="-4.23215">
        <ele>5</ele>
        <time>2023-11-25T16:39:10.664Z</time>
      </trkpt>
      <trkpt lat="47.86813" lon="-4.23293">
        <ele>5</ele>
        <time>2023-11-25T16:39:09.356Z</time>
      </trkpt>
      <trkpt lat="47.86859" lon="-4.23374">
        <ele>8</ele>
        <time>2023-11-25T16:39:08.062Z</time>
      </trkpt>
      <trkpt lat="47.86911" lon="-4.23473">
        <ele>10</ele>
        <time>2023-11-25T16:39:06.783Z</time>
      </trkpt>
      <trkpt lat="47.86966" lon="-4.23579">
        <ele>10</ele>
        <time>2023-11-25T16:39:05.521Z</time>
      </trkpt>
      <trkpt lat="47.87015" lon="-4.23672">
        <ele>9</ele>
        <time>2023-11-25T16:39:04.277Z</time>
      </trkpt>
      <trkpt lat="47.87057" lon="-4.23753">
        <ele>11</ele>
        <time>2023-11-25T16:39:03.048Z</time>
      </trkpt>
      <trkpt lat="47.87108" lon="-4.23851">
        <ele>13</ele>
        <time>2023-11-25T16:39:01.833Z</time>
      </trkpt>
      <trkpt lat="47.87137" lon="-4.2392">
        <ele>14</ele>
        <time>2023-11-25T16:39:00.635Z</time>
      </trkpt>
      <trkpt lat="47.87128" lon="-4.23946">
        <ele>14</ele>
        <time>2023-11-25T16:38:59.448Z</time>
      </trkpt>
      <trkpt lat="47.87128" lon="-4.23975">
        <ele>14</ele>
        <time>2023-11-25T16:38:58.265Z</time>
      </trkpt>
      <trkpt lat="47.87148" lon="-4.23989">
        <ele>14</ele>
        <time>2023-11-25T16:38:57.086Z</time>
      </trkpt>
      <trkpt lat="47.87162" lon="-4.23979">
        <ele>15</ele>
        <time>2023-11-25T16:38:55.911Z</time>
      </trkpt>
      <trkpt lat="47.87187" lon="-4.23994">
        <ele>15</ele>
        <time>2023-11-25T16:38:54.739Z</time>
      </trkpt>
      <trkpt lat="47.87243" lon="-4.24044">
        <ele>17</ele>
        <time>2023-11-25T16:38:53.573Z</time>
      </trkpt>
      <trkpt lat="47.87279" lon="-4.24071">
        <ele>18</ele>
        <time>2023-11-25T16:38:52.420Z</time>
      </trkpt>
      <trkpt lat="47.87337" lon="-4.241">
        <ele>20</ele>
        <time>2023-11-25T16:38:51.275Z</time>
      </trkpt>
      <trkpt lat="47.87367" lon="-4.24117">
        <ele>21</ele>
        <time>2023-11-25T16:38:50.142Z</time>
      </trkpt>
      <trkpt lat="47.87349" lon="-4.2422">
        <ele>20</ele>
        <time>2023-11-25T16:38:49.016Z</time>
      </trkpt>
      <trkpt lat="47.87346" lon="-4.24272">
        <ele>20</ele>
        <time>2023-11-25T16:38:47.904Z</time>
      </trkpt>
      <trkpt lat="47.87338" lon="-4.2436">
        <ele>17</ele>
        <time>2023-11-25T16:38:46.799Z</time>
      </trkpt>
      <trkpt lat="47.87334" lon="-4.24416">
        <ele>16</ele>
        <time>2023-11-25T16:38:45.706Z</time>
      </trkpt>
      <trkpt lat="47.87336" lon="-4.24487">
        <ele>17</ele>
        <time>2023-11-25T16:38:44.621Z</time>
      </trkpt>
      <trkpt lat="47.87343" lon="-4.24548">
        <ele>18</ele>
        <time>2023-11-25T16:38:43.545Z</time>
      </trkpt>
      <trkpt lat="47.87359" lon="-4.24607">
        <ele>18</ele>
        <time>2023-11-25T16:38:42.477Z</time>
      </trkpt>
      <trkpt lat="47.87372" lon="-4.24669">
        <ele>17</ele>
        <time>2023-11-25T16:38:41.418Z</time>
      </trkpt>
      <trkpt lat="47.87389" lon="-4.24737">
        <ele>14</ele>
        <time>2023-11-25T16:38:40.368Z</time>
      </trkpt>
      <trkpt lat="47.87396" lon="-4.24791">
        <ele>11</ele>
        <time>2023-11-25T16:38:39.327Z</time>
      </trkpt>
      <trkpt lat="47.87398" lon="-4.24847">
        <ele>10</ele>
        <time>2023-11-25T16:38:38.294Z</time>
      </trkpt>
      <trkpt lat="47.87403" lon="-4.24934">
        <ele>12</ele>
        <time>2023-11-25T16:38:37.268Z</time>
      </trkpt>
      <trkpt lat="47.87408" lon="-4.25036">
        <ele>12</ele>
        <time>2023-11-25T16:38:36.254Z</time>
      </trkpt>
      <trkpt lat="47.87414" lon="-4.25125">
        <ele>13</ele>
        <time>2023-11-25T16:38:35.254Z</time>
      </trkpt>
      <trkpt lat="47.87424" lon="-4.25226">
        <ele>12</ele>
        <time>2023-11-25T16:38:34.266Z</time>
      </trkpt>
      <trkpt lat="47.87439" lon="-4.25321">
        <ele>11</ele>
        <time>2023-11-25T16:38:33.292Z</time>
      </trkpt>
      <trkpt lat="47.87436" lon="-4.25381">
        <ele>10</ele>
        <time>2023-11-25T16:38:32.331Z</time>
      </trkpt>
      <trkpt lat="47.87435" lon="-4.25443">
        <ele>9</ele>
        <time>2023-11-25T16:38:31.378Z</time>
      </trkpt>
      <trkpt lat="47.87423" lon="-4.25485">
        <ele>10</ele>
        <time>2023-11-25T16:38:30.433Z</time>
      </trkpt>
      <trkpt lat="47.87401" lon="-4.25575">
        <ele>12</ele>
        <time>2023-11-25T16:38:29.494Z</time>
      </trkpt>
      <trkpt lat="47.87389" lon="-4.25686">
        <ele>13</ele>
        <time>2023-11-25T16:38:28.568Z</time>
      </trkpt>
      <trkpt lat="47.87383" lon="-4.25759">
        <ele>13</ele>
        <time>2023-11-25T16:38:27.657Z</time>
      </trkpt>
      <trkpt lat="47.87378" lon="-4.25845">
        <ele>14</ele>
        <time>2023-11-25T16:38:26.756Z</time>
      </trkpt>
      <trkpt lat="47.87376" lon="-4.25961">
        <ele>16</ele>
        <time>2023-11-25T16:38:25.867Z</time>
      </trkpt>
      <trkpt lat="47.87375" lon="-4.26036">
        <ele>17</ele>
        <time>2023-11-25T16:38:24.994Z</time>
      </trkpt>
      <trkpt lat="47.87365" lon="-4.26105">
        <ele>16</ele>
        <time>2023-11-25T16:38:24.131Z</time>
      </trkpt>
      <trkpt lat="47.87349" lon="-4.2618">
        <ele>17</ele>
        <time>2023-11-25T16:38:23.277Z</time>
      </trkpt>
      <trkpt lat="47.87354" lon="-4.26233">
        <ele>18</ele>
        <time>2023-11-25T16:38:22.434Z</time>
      </trkpt>
      <trkpt lat="47.8736" lon="-4.26287">
        <ele>19</ele>
        <time>2023-11-25T16:38:21.598Z</time>
      </trkpt>
      <trkpt lat="47.87358" lon="-4.26332">
        <ele>20</ele>
        <time>2023-11-25T16:38:20.769Z</time>
      </trkpt>
      <trkpt lat="47.8735" lon="-4.26397">
        <ele>21</ele>
        <time>2023-11-25T16:38:19.947Z</time>
      </trkpt>
      <trkpt lat="47.87349" lon="-4.26454">
        <ele>21</ele>
        <time>2023-11-25T16:38:19.133Z</time>
      </trkpt>
      <trkpt lat="47.87351" lon="-4.26543">
        <ele>22</ele>
        <time>2023-11-25T16:38:18.327Z</time>
      </trkpt>
      <trkpt lat="47.87353" lon="-4.26613">
        <ele>22</ele>
        <time>2023-11-25T16:38:17.533Z</time>
      </trkpt>
      <trkpt lat="47.87355" lon="-4.26684">
        <ele>22</ele>
        <time>2023-11-25T16:38:16.749Z</time>
      </trkpt>
      <trkpt lat="47.87368" lon="-4.26728">
        <ele>22</ele>
        <time>2023-11-25T16:38:15.974Z</time>
      </trkpt>
      <trkpt lat="47.87384" lon="-4.26782">
        <ele>22</ele>
        <time>2023-11-25T16:38:15.205Z</time>
      </trkpt>
      <trkpt lat="47.87408" lon="-4.26838">
        <ele>22</ele>
        <time>2023-11-25T16:38:14.444Z</time>
      </trkpt>
      <trkpt lat="47.87436" lon="-4.26895">
        <ele>21</ele>
        <time>2023-11-25T16:38:13.692Z</time>
      </trkpt>
      <trkpt lat="47.8746" lon="-4.26947">
        <ele>22</ele>
        <time>2023-11-25T16:38:12.950Z</time>
      </trkpt>
      <trkpt lat="47.87486" lon="-4.26955">
        <ele>23</ele>
        <time>2023-11-25T16:38:12.216Z</time>
      </trkpt>
      <trkpt lat="47.87524" lon="-4.26952">
        <ele>23</ele>
        <time>2023-11-25T16:38:11.488Z</time>
      </trkpt>
      <trkpt lat="47.87565" lon="-4.26952">
        <ele>22</ele>
        <time>2023-11-25T16:38:10.767Z</time>
      </trkpt>
      <trkpt lat="47.87592" lon="-4.26957">
        <ele>22</ele>
        <time>2023-11-25T16:38:10.054Z</time>
      </trkpt>
      <trkpt lat="47.87606" lon="-4.26957">
        <ele>21</ele>
        <time>2023-11-25T16:38:09.347Z</time>
      </trkpt>
      <trkpt lat="47.87648" lon="-4.26994">
        <ele>19</ele>
        <time>2023-11-25T16:38:08.643Z</time>
      </trkpt>
      <trkpt lat="47.87683" lon="-4.27024">
        <ele>17</ele>
        <time>2023-11-25T16:38:07.949Z</time>
      </trkpt>
      <trkpt lat="47.87732" lon="-4.27062">
        <ele>15</ele>
        <time>2023-11-25T16:38:07.263Z</time>
      </trkpt>
      <trkpt lat="47.87769" lon="-4.27086">
        <ele>14</ele>
        <time>2023-11-25T16:38:06.588Z</time>
      </trkpt>
      <trkpt lat="47.87811" lon="-4.27098">
        <ele>17</ele>
        <time>2023-11-25T16:38:05.921Z</time>
      </trkpt>
      <trkpt lat="47.87852" lon="-4.27105">
        <ele>20</ele>
        <time>2023-11-25T16:38:05.262Z</time>
      </trkpt>
      <trkpt lat="47.879" lon="-4.27114">
        <ele>21</ele>
        <time>2023-11-25T16:38:04.612Z</time>
      </trkpt>
      <trkpt lat="47.87931" lon="-4.27125">
        <ele>21</ele>
        <time>2023-11-25T16:38:03.971Z</time>
      </trkpt>
      <trkpt lat="47.87959" lon="-4.27129">
        <ele>22</ele>
        <time>2023-11-25T16:38:03.337Z</time>
      </trkpt>
      <trkpt lat="47.88003" lon="-4.27141">
        <ele>22</ele>
        <time>2023-11-25T16:38:02.708Z</time>
      </trkpt>
      <trkpt lat="47.88069" lon="-4.27157">
        <ele>21</ele>
        <time>2023-11-25T16:38:02.088Z</time>
      </trkpt>
      <trkpt lat="47.88105" lon="-4.27174">
        <ele>22</ele>
        <time>2023-11-25T16:38:01.482Z</time>
      </trkpt>
      <trkpt lat="47.88133" lon="-4.27187">
        <ele>22</ele>
        <time>2023-11-25T16:38:00.883Z</time>
      </trkpt>
      <trkpt lat="47.88222" lon="-4.27222">
        <ele>21</ele>
        <time>2023-11-25T16:38:00.290Z</time>
      </trkpt>
      <trkpt lat="47.88255" lon="-4.27241">
        <ele>20</ele>
        <time>2023-11-25T16:37:59.715Z</time>
      </trkpt>
      <trkpt lat="47.88278" lon="-4.27252">
        <ele>20</ele>
        <time>2023-11-25T16:37:59.147Z</time>
      </trkpt>
      <trkpt lat="47.88297" lon="-4.27267">
        <ele>20</ele>
        <time>2023-11-25T16:37:58.584Z</time>
      </trkpt>
      <trkpt lat="47.88318" lon="-4.27281">
        <ele>20</ele>
        <time>2023-11-25T16:37:58.026Z</time>
      </trkpt>
      <trkpt lat="47.88351" lon="-4.27312">
        <ele>20</ele>
        <time>2023-11-25T16:37:57.472Z</time>
      </trkpt>
      <trkpt lat="47.88406" lon="-4.27364">
        <ele>20</ele>
        <time>2023-11-25T16:37:56.926Z</time>
      </trkpt>
      <trkpt lat="47.88454" lon="-4.27407">
        <ele>19</ele>
        <time>2023-11-25T16:37:56.393Z</time>
      </trkpt>
      <trkpt lat="47.88501" lon="-4.27453">
        <ele>19</ele>
        <time>2023-11-25T16:37:55.871Z</time>
      </trkpt>
      <trkpt lat="47.88552" lon="-4.27495">
        <ele>19</ele>
        <time>2023-11-25T16:37:55.361Z</time>
      </trkpt>
      <trkpt lat="47.88587" lon="-4.27533">
        <ele>20</ele>
        <time>2023-11-25T16:37:54.862Z</time>
      </trkpt>
      <trkpt lat="47.8861" lon="-4.27571">
        <ele>20</ele>
        <time>2023-11-25T16:37:54.372Z</time>
      </trkpt>
      <trkpt lat="47.88622" lon="-4.27628">
        <ele>21</ele>
        <time>2023-11-25T16:37:53.889Z</time>
      </trkpt>
      <trkpt lat="47.88622" lon="-4.27671">
        <ele>23</ele>
        <time>2023-11-25T16:37:53.414Z</time>
      </trkpt>
      <trkpt lat="47.88636" lon="-4.27644">
        <ele>21</ele>
        <time>2023-11-25T16:37:52.945Z</time>
      </trkpt>
      <trkpt lat="47.88659" lon="-4.27584">
        <ele>21</ele>
        <time>2023-11-25T16:37:52.480Z</time>
      </trkpt>
      <trkpt lat="47.88671" lon="-4.27523">
        <ele>23</ele>
        <time>2023-11-25T16:37:52.025Z</time>
      </trkpt>
      <trkpt lat="47.88706" lon="-4.27556">
        <ele>24</ele>
        <time>2023-11-25T16:37:51.578Z</time>
      </trkpt>
      <trkpt lat="47.88735" lon="-4.27573">
        <ele>24</ele>
        <time>2023-11-25T16:37:51.140Z</time>
      </trkpt>
      <trkpt lat="47.88765" lon="-4.27568">
        <ele>24</ele>
        <time>2023-11-25T16:37:50.708Z</time>
      </trkpt>
      <trkpt lat="47.88815" lon="-4.27538">
        <ele>25</ele>
        <time>2023-11-25T16:37:50.282Z</time>
      </trkpt>
      <trkpt lat="47.8885" lon="-4.27488">
        <ele>27</ele>
        <time>2023-11-25T16:37:49.867Z</time>
      </trkpt>
      <trkpt lat="47.8885" lon="-4.27488">
        <ele>27</ele>
        <time>2023-11-25T16:37:49.461Z</time>
      </trkpt>
      <trkpt lat="47.88898" lon="-4.27392">
        <ele>30</ele>
        <time>2023-11-25T16:37:49.055Z</time>
      </trkpt>
      <trkpt lat="47.88949" lon="-4.27285">
        <ele>32</ele>
        <time>2023-11-25T16:37:48.665Z</time>
      </trkpt>
      <trkpt lat="47.88993" lon="-4.27203">
        <ele>33</ele>
        <time>2023-11-25T16:37:48.293Z</time>
      </trkpt>
      <trkpt lat="47.89018" lon="-4.27164">
        <ele>34</ele>
        <time>2023-11-25T16:37:47.935Z</time>
      </trkpt>
      <trkpt lat="47.89066" lon="-4.2719">
        <ele>34</ele>
        <time>2023-11-25T16:37:47.585Z</time>
      </trkpt>
      <trkpt lat="47.89092" lon="-4.27197">
        <ele>34</ele>
        <time>2023-11-25T16:37:47.245Z</time>
      </trkpt>
      <trkpt lat="47.89134" lon="-4.27205">
        <ele>35</ele>
        <time>2023-11-25T16:37:46.910Z</time>
      </trkpt>
      <trkpt lat="47.89166" lon="-4.27231">
        <ele>36</ele>
        <time>2023-11-25T16:37:46.584Z</time>
      </trkpt>
      <trkpt lat="47.89185" lon="-4.27265">
        <ele>36</ele>
        <time>2023-11-25T16:37:46.265Z</time>
      </trkpt>
      <trkpt lat="47.89195" lon="-4.27304">
        <ele>37</ele>
        <time>2023-11-25T16:37:45.952Z</time>
      </trkpt>
      <trkpt lat="47.89263" lon="-4.27329">
        <ele>37</ele>
        <time>2023-11-25T16:37:45.644Z</time>
      </trkpt>
      <trkpt lat="47.89323" lon="-4.2734">
        <ele>37</ele>
        <time>2023-11-25T16:37:45.350Z</time>
      </trkpt>
      <trkpt lat="47.89369" lon="-4.27362">
        <ele>38</ele>
        <time>2023-11-25T16:37:45.068Z</time>
      </trkpt>
      <trkpt lat="47.894" lon="-4.27378">
        <ele>40</ele>
        <time>2023-11-25T16:37:44.796Z</time>
      </trkpt>
      <trkpt lat="47.89437" lon="-4.2743">
        <ele>42</ele>
        <time>2023-11-25T16:37:44.531Z</time>
      </trkpt>
      <trkpt lat="47.89481" lon="-4.27477">
        <ele>44</ele>
        <time>2023-11-25T16:37:44.276Z</time>
      </trkpt>
      <trkpt lat="47.89574" lon="-4.27576">
        <ele>47</ele>
        <time>2023-11-25T16:37:44.032Z</time>
      </trkpt>
      <trkpt lat="47.89651" lon="-4.27656">
        <ele>51</ele>
        <time>2023-11-25T16:37:43.810Z</time>
      </trkpt>
      <trkpt lat="47.89684" lon="-4.27684">
        <ele>52</ele>
        <time>2023-11-25T16:37:43.607Z</time>
      </trkpt>
      <trkpt lat="47.89672" lon="-4.27749">
        <ele>51</ele>
        <time>2023-11-25T16:37:43.412Z</time>
      </trkpt>
      <trkpt lat="47.89669" lon="-4.27796">
        <ele>51</ele>
        <time>2023-11-25T16:37:43.226Z</time>
      </trkpt>
      <trkpt lat="47.89678" lon="-4.27836">
        <ele>51</ele>
        <time>2023-11-25T16:37:43.046Z</time>
      </trkpt>
      <trkpt lat="47.89689" lon="-4.27881">
        <ele>50</ele>
        <time>2023-11-25T16:37:42.872Z</time>
      </trkpt>
      <trkpt lat="47.89703" lon="-4.27916">
        <ele>50</ele>
        <time>2023-11-25T16:37:42.704Z</time>
      </trkpt>
      <trkpt lat="47.89728" lon="-4.27937">
        <ele>50</ele>
        <time>2023-11-25T16:37:42.542Z</time>
      </trkpt>
      <trkpt lat="47.89767" lon="-4.27942">
        <ele>51</ele>
        <time>2023-11-25T16:37:42.386Z</time>
      </trkpt>
      <trkpt lat="47.89811" lon="-4.27946">
        <ele>53</ele>
        <time>2023-11-25T16:37:42.237Z</time>
      </trkpt>
      <trkpt lat="47.89845" lon="-4.27944">
        <ele>55</ele>
        <time>2023-11-25T16:37:42.097Z</time>
      </trkpt>
      <trkpt lat="47.89879" lon="-4.27953">
        <ele>56</ele>
        <time>2023-11-25T16:37:41.964Z</time>
      </trkpt>
      <trkpt lat="47.89918" lon="-4.27968">
        <ele>58</ele>
        <time>2023-11-25T16:37:41.838Z</time>
      </trkpt>
      <trkpt lat="47.89975" lon="-4.27994">
        <ele>60</ele>
        <time>2023-11-25T16:37:41.720Z</time>
      </trkpt>
      <trkpt lat="47.90028" lon="-4.28014">
        <ele>62</ele>
        <time>2023-11-25T16:37:41.614Z</time>
      </trkpt>
      <trkpt lat="47.90076" lon="-4.2804">
        <ele>64</ele>
        <time>2023-11-25T16:37:41.519Z</time>
      </trkpt>
      <trkpt lat="47.90098" lon="-4.28059">
        <ele>64</ele>
        <time>2023-11-25T16:37:41.434Z</time>
      </trkpt>
      <trkpt lat="47.90161" lon="-4.28131">
        <ele>66</ele>
        <time>2023-11-25T16:37:41.354Z</time>
      </trkpt>
      <trkpt lat="47.9021" lon="-4.28176">
        <ele>68</ele>
        <time>2023-11-25T16:37:41.290Z</time>
      </trkpt>
      <trkpt lat="47.90233" lon="-4.28209">
        <ele>69</ele>
        <time>2023-11-25T16:37:41.238Z</time>
      </trkpt>
      <trkpt lat="47.90234" lon="-4.28227">
        <ele>69</ele>
        <time>2023-11-25T16:37:41.192Z</time>
      </trkpt>
      <trkpt lat="47.90263" lon="-4.28224">
        <ele>70</ele>
        <time>2023-11-25T16:37:41.148Z</time>
      </trkpt>
      <trkpt lat="47.90284" lon="-4.28251">
        <ele>71</ele>
        <time>2023-11-25T16:37:41.110Z</time>
      </trkpt>
      <trkpt lat="47.90299" lon="-4.28284">
        <ele>71</ele>
        <time>2023-11-25T16:37:41.078Z</time>
      </trkpt>
      <trkpt lat="47.9031" lon="-4.28314">
        <ele>71</ele>
        <time>2023-11-25T16:37:41.051Z</time>
      </trkpt>
      <trkpt lat="47.90321" lon="-4.28362">
        <ele>71</ele>
        <time>2023-11-25T16:37:41.029Z</time>
      </trkpt>
      <trkpt lat="47.90323" lon="-4.28401">
        <ele>71</ele>
        <time>2023-11-25T16:37:41.014Z</time>
      </trkpt>
      <trkpt lat="47.90313" lon="-4.28444">
        <ele>71</ele>
        <time>2023-11-25T16:37:41.004Z</time>
      </trkpt>
      <trkpt lat="47.90312" lon="-4.28474">
        <ele>71</ele>
        <time>2023-11-25T16:37:41.000Z</time>
      </trkpt>
    </trkseg>
  </trk>
</gpx>